Language: 


Des rapports , des résumés tant et plus, au choix de chacun....


Données Historiques de Météogheer
Journalier Rapport pour Janvier 9, 2018 Unitée:  Les deux    Impériale   Métrique
Suivant Jour »
Journalier Hebdomadaire Mensuel Annuel Sur mesure
  Max: Min: Moyenne:
Température: 42.4 °F /  5.8 °C 32.9 °F /  0.5 °C 37.4 °F /  3 °C
Point de rosée: 42.8 °F /  6.0 °C 33.8 °F /  1.0 °C 37.6 °F /  3.1 °C
Humidité: 98% 98% 98%
Vent: 10.3mph /  16.6km/h - 2mph /  3.2km/h
Rafales: 10.7mph /  17.2km/h - -
Vent- - SSE
Pression: 29.9 in /  1014.1 hPa 29.7 in /  1006.0 hPa -
Pluie: 0 in /  0.0 mm    
Historical Graphs
 
 
Données tabulaires pour Janvier 9, 2018
Heure Température Point de rosée Pression Vent Vent Rafales Humidité Pluie Taux (Horaire) Conditions
00:00 35.2 °F /  1.8 °C 35.6 °F /  2.0 °C 29.9in /  1014.1hPa Calm   4.3mph /  6.9km/h 98% 0in /  0.0mm
00:01 35.2 °F /  1.8 °C 35.6 °F /  2.0 °C 29.9in /  1014.1hPa Calm   4.3mph /  6.9km/h 98% 0in /  0.0mm
00:03 35.2 °F /  1.8 °C 35.6 °F /  2.0 °C 29.9in /  1014.1hPa NE 2.5mph /  4.0km/h 4mph /  6.4km/h 98% 0in /  0.0mm
00:04 35.1 °F /  1.7 °C 35.6 °F /  2.0 °C 29.9in /  1014.1hPa NE 3.8mph /  6.1km/h 3.8mph /  6.1km/h 98% 0in /  0.0mm
00:06 35.2 °F /  1.8 °C 35.6 °F /  2.0 °C 29.9in /  1014.1hPa ENE 3.8mph /  6.1km/h 4mph /  6.4km/h 98% 0in /  0.0mm
00:08 35.2 °F /  1.8 °C 35.6 °F /  2.0 °C 29.9in /  1014.1hPa ENE 3.4mph /  5.5km/h 4mph /  6.4km/h 98% 0in /  0.0mm
00:09 35.2 °F /  1.8 °C 35.6 °F /  2.0 °C 29.9in /  1014.1hPa NE 4mph /  6.4km/h 4mph /  6.4km/h 98% 0in /  0.0mm
00:10 35.2 °F /  1.8 °C 35.6 °F /  2.0 °C 29.9in /  1014.1hPa NE 2mph /  3.2km/h 4mph /  6.4km/h 98% 0in /  0.0mm
00:11 35.2 °F /  1.8 °C 35.6 °F /  2.0 °C 29.9in /  1014.1hPa Calm   4mph /  6.4km/h 98% 0in /  0.0mm
00:13 35.2 °F /  1.8 °C 35.6 °F /  2.0 °C 29.9in /  1014.1hPa ENE 3.4mph /  5.5km/h 4mph /  6.4km/h 98% 0in /  0.0mm
00:14 35.2 °F /  1.8 °C 35.6 °F /  2.0 °C 29.9in /  1014.1hPa ENE 3.1mph /  5.0km/h 4.3mph /  6.9km/h 98% 0in /  0.0mm
00:16 35.2 °F /  1.8 °C 35.6 °F /  2.0 °C 29.9in /  1014.1hPa Calm   4.3mph /  6.9km/h 98% 0in /  0.0mm
00:17 35.2 °F /  1.8 °C 35.6 °F /  2.0 °C 29.9in /  1014.1hPa Calm   4.3mph /  6.9km/h 98% 0in /  0.0mm
00:18 35.2 °F /  1.8 °C 35.6 °F /  2.0 °C 29.9in /  1014.1hPa Calm   4.3mph /  6.9km/h 98% 0in /  0.0mm
00:21 35.1 °F /  1.7 °C 35.6 °F /  2.0 °C 29.9in /  1014.1hPa ENE 2.5mph /  4.0km/h 4.3mph /  6.9km/h 98% 0in /  0.0mm
00:22 35.2 °F /  1.8 °C 35.6 °F /  2.0 °C 29.9in /  1014.1hPa ENE 3.6mph /  5.8km/h 4.3mph /  6.9km/h 98% 0in /  0.0mm
00:26 35.2 °F /  1.8 °C 35.6 °F /  2.0 °C 29.9in /  1014.1hPa Calm   3.8mph /  6.1km/h 98% 0in /  0.0mm
00:28 35.2 °F /  1.8 °C 35.6 °F /  2.0 °C 29.9in /  1014.1hPa Calm   3.8mph /  6.1km/h 98% 0in /  0.0mm
00:33 35.1 °F /  1.7 °C 35.6 °F /  2.0 °C 29.9in /  1014.1hPa ENE 2.5mph /  4.0km/h 3.8mph /  6.1km/h 98% 0in /  0.0mm
00:38 35.1 °F /  1.7 °C 35.6 °F /  2.0 °C 29.9in /  1014.1hPa Calm   3.8mph /  6.1km/h 98% 0in /  0.0mm
00:40 35.1 °F /  1.7 °C 35.6 °F /  2.0 °C 29.9in /  1014.1hPa NE 3.4mph /  5.5km/h 3.8mph /  6.1km/h 98% 0in /  0.0mm
00:43 35.1 °F /  1.7 °C 35.6 °F /  2.0 °C 29.9in /  1013.1hPa Calm   3.6mph /  5.8km/h 98% 0in /  0.0mm
00:47 35.1 °F /  1.7 °C 35.6 °F /  2.0 °C 29.9in /  1013.1hPa ENE 3.8mph /  6.1km/h 4.9mph /  7.9km/h 98% 0in /  0.0mm
00:48 35.2 °F /  1.8 °C 35.6 °F /  2.0 °C 29.9in /  1013.1hPa NE 4.3mph /  6.9km/h 4.9mph /  7.9km/h 98% 0in /  0.0mm
00:53 35.2 °F /  1.8 °C 35.6 °F /  2.0 °C 29.9in /  1013.1hPa NE 3.8mph /  6.1km/h 5.4mph /  8.7km/h 98% 0in /  0.0mm
00:56 35.2 °F /  1.8 °C 35.6 °F /  2.0 °C 29.9in /  1012.1hPa Calm   5.4mph /  8.7km/h 98% 0in /  0.0mm
00:57 35.2 °F /  1.8 °C 35.6 °F /  2.0 °C 29.9in /  1012.1hPa Calm   5.4mph /  8.7km/h 98% 0in /  0.0mm
00:59 35.4 °F /  1.9 °C 35.6 °F /  2.0 °C 29.9in /  1012.1hPa Calm   4.9mph /  7.9km/h 98% 0in /  0.0mm
01:00 35.4 °F /  1.9 °C 35.6 °F /  2.0 °C 29.9in /  1012.1hPa NE 4.3mph /  6.9km/h 4.9mph /  7.9km/h 98% 0in /  0.0mm
01:04 35.4 °F /  1.9 °C 35.6 °F /  2.0 °C 29.9in /  1012.1hPa NE 5.6mph /  9.0km/h 5.6mph /  9.0km/h 98% 0in /  0.0mm
01:05 35.4 °F /  1.9 °C 35.6 °F /  2.0 °C 29.9in /  1012.1hPa NE 4.9mph /  7.9km/h 5.6mph /  9.0km/h 98% 0in /  0.0mm
01:06 35.4 °F /  1.9 °C 35.6 °F /  2.0 °C 29.9in /  1012.1hPa NE 3.6mph /  5.8km/h 5.6mph /  9.0km/h 98% 0in /  0.0mm
01:09 35.4 °F /  1.9 °C 35.6 °F /  2.0 °C 29.9in /  1012.1hPa NE 3.6mph /  5.8km/h 5.6mph /  9.0km/h 98% 0in /  0.0mm
01:12 35.2 °F /  1.8 °C 35.6 °F /  2.0 °C 29.9in /  1013.1hPa ENE 2.9mph /  4.7km/h 5.6mph /  9.0km/h 98% 0in /  0.0mm
01:13 35.2 °F /  1.8 °C 35.6 °F /  2.0 °C 29.9in /  1013.1hPa NE 3.8mph /  6.1km/h 5.6mph /  9.0km/h 98% 0in /  0.0mm
01:14 35.2 °F /  1.8 °C 35.6 °F /  2.0 °C 29.9in /  1013.1hPa ENE 3.6mph /  5.8km/h 5.6mph /  9.0km/h 98% 0in /  0.0mm
01:15 35.2 °F /  1.8 °C 35.6 °F /  2.0 °C 29.9in /  1013.1hPa NE 5.4mph /  8.7km/h 5.6mph /  9.0km/h 98% 0in /  0.0mm
01:16 35.2 °F /  1.8 °C 35.6 °F /  2.0 °C 29.9in /  1013.1hPa NE 4.3mph /  6.9km/h 5.6mph /  9.0km/h 98% 0in /  0.0mm
01:19 35.2 °F /  1.8 °C 35.6 °F /  2.0 °C 29.9in /  1013.1hPa NE 3.1mph /  5.0km/h 5.6mph /  9.0km/h 98% 0in /  0.0mm
01:21 35.2 °F /  1.8 °C 35.6 °F /  2.0 °C 29.9in /  1013.1hPa Calm   5.6mph /  9.0km/h 98% 0in /  0.0mm
01:22 35.2 °F /  1.8 °C 35.6 °F /  2.0 °C 29.9in /  1013.1hPa Calm   5.6mph /  9.0km/h 98% 0in /  0.0mm
01:23 35.2 °F /  1.8 °C 35.6 °F /  2.0 °C 29.9in /  1013.1hPa Calm   5.6mph /  9.0km/h 98% 0in /  0.0mm
01:28 35.1 °F /  1.7 °C 35.6 °F /  2.0 °C 29.9in /  1013.1hPa Calm   4.3mph /  6.9km/h 98% 0in /  0.0mm
01:29 35.1 °F /  1.7 °C 35.6 °F /  2.0 °C 29.9in /  1013.1hPa Calm   4.3mph /  6.9km/h 98% 0in /  0.0mm
01:31 35.1 °F /  1.7 °C 35.6 °F /  2.0 °C 29.9in /  1013.1hPa NE 2.9mph /  4.7km/h 4.3mph /  6.9km/h 98% 0in /  0.0mm
01:33 35.1 °F /  1.7 °C 35.6 °F /  2.0 °C 29.9in /  1013.1hPa Calm   4.3mph /  6.9km/h 98% 0in /  0.0mm
01:35 35.1 °F /  1.7 °C 35.6 °F /  2.0 °C 29.9in /  1013.1hPa Calm   4.3mph /  6.9km/h 98% 0in /  0.0mm
01:38 35.1 °F /  1.7 °C 35.6 °F /  2.0 °C 29.9in /  1013.1hPa Calm   4.3mph /  6.9km/h 98% 0in /  0.0mm
01:39 34.9 °F /  1.6 °C 35.6 °F /  2.0 °C 29.9in /  1013.1hPa Calm   4mph /  6.4km/h 98% 0in /  0.0mm
01:42 34.9 °F /  1.6 °C 35.6 °F /  2.0 °C 29.9in /  1013.1hPa Calm   2.9mph /  4.7km/h 98% 0in /  0.0mm
01:47 34.7 °F /  1.5 °C 35.6 °F /  2.0 °C 29.9in /  1013.1hPa NE 3.4mph /  5.5km/h 3.4mph /  5.5km/h 98% 0in /  0.0mm
01:51 34.7 °F /  1.5 °C 35.6 °F /  2.0 °C 29.9in /  1013.1hPa Calm   3.4mph /  5.5km/h 98% 0in /  0.0mm
01:56 34.5 °F /  1.4 °C 33.8 °F /  1.0 °C 29.9in /  1013.1hPa Calm   3.4mph /  5.5km/h 98% 0in /  0.0mm
01:57 34.5 °F /  1.4 °C 33.8 °F /  1.0 °C 29.9in /  1012.1hPa Calm   3.4mph /  5.5km/h 98% 0in /  0.0mm
01:59 34.5 °F /  1.4 °C 33.8 °F /  1.0 °C 29.9in /  1012.1hPa Calm   2mph /  3.2km/h 98% 0in /  0.0mm
02:00 34.5 °F /  1.4 °C 33.8 °F /  1.0 °C 29.9in /  1012.1hPa Calm   2mph /  3.2km/h 98% 0in /  0.0mm
02:01 34.5 °F /  1.4 °C 33.8 °F /  1.0 °C 29.9in /  1012.1hPa Calm   0.9mph /  1.4km/h 98% 0in /  0.0mm
02:03 34.5 °F /  1.4 °C 33.8 °F /  1.0 °C 29.9in /  1012.1hPa Calm   0.9mph /  1.4km/h 98% 0in /  0.0mm
02:06 34.5 °F /  1.4 °C 33.8 °F /  1.0 °C 29.9in /  1012.1hPa NNE 3.1mph /  5.0km/h 3.4mph /  5.5km/h 98% 0in /  0.0mm
02:07 34.5 °F /  1.4 °C 33.8 °F /  1.0 °C 29.9in /  1012.1hPa NNE 1.1mph /  1.8km/h 3.4mph /  5.5km/h 98% 0in /  0.0mm
02:08 34.5 °F /  1.4 °C 33.8 °F /  1.0 °C 29.9in /  1012.1hPa NNE 2.2mph /  3.5km/h 3.4mph /  5.5km/h 98% 0in /  0.0mm
02:09 34.7 °F /  1.5 °C 35.6 °F /  2.0 °C 29.9in /  1012.1hPa NE 3.1mph /  5.0km/h 3.6mph /  5.8km/h 98% 0in /  0.0mm
02:12 34.7 °F /  1.5 °C 35.6 °F /  2.0 °C 29.9in /  1012.1hPa NE 3.6mph /  5.8km/h 3.8mph /  6.1km/h 98% 0in /  0.0mm
02:13 34.7 °F /  1.5 °C 35.6 °F /  2.0 °C 29.9in /  1012.1hPa North 4.7mph /  7.6km/h 5.8mph /  9.3km/h 98% 0in /  0.0mm
02:14 34.5 °F /  1.4 °C 33.8 °F /  1.0 °C 29.9in /  1012.1hPa NNE 4.9mph /  7.9km/h 5.8mph /  9.3km/h 98% 0in /  0.0mm
02:16 34.5 °F /  1.4 °C 33.8 °F /  1.0 °C 29.9in /  1012.1hPa NNE 3.1mph /  5.0km/h 5.8mph /  9.3km/h 98% 0in /  0.0mm
02:17 34.5 °F /  1.4 °C 33.8 °F /  1.0 °C 29.9in /  1012.1hPa Calm   5.8mph /  9.3km/h 98% 0in /  0.0mm
02:18 34.5 °F /  1.4 °C 33.8 °F /  1.0 °C 29.9in /  1012.1hPa NNE 3.1mph /  5.0km/h 5.8mph /  9.3km/h 98% 0in /  0.0mm
02:20 34.5 °F /  1.4 °C 33.8 °F /  1.0 °C 29.9in /  1012.1hPa NNE 3.4mph /  5.5km/h 5.8mph /  9.3km/h 98% 0in /  0.0mm
02:21 34.5 °F /  1.4 °C 33.8 °F /  1.0 °C 29.9in /  1012.1hPa North 4mph /  6.4km/h 5.8mph /  9.3km/h 98% 0in /  0.0mm
02:23 34.5 °F /  1.4 °C 33.8 °F /  1.0 °C 29.9in /  1012.1hPa NNE 2.9mph /  4.7km/h 5.4mph /  8.7km/h 98% 0in /  0.0mm
02:24 34.5 °F /  1.4 °C 33.8 °F /  1.0 °C 29.9in /  1012.1hPa North 2.5mph /  4.0km/h 4.7mph /  7.6km/h 98% 0in /  0.0mm
02:26 34.5 °F /  1.4 °C 33.8 °F /  1.0 °C 29.9in /  1011.1hPa NNE 3.4mph /  5.5km/h 4.7mph /  7.6km/h 98% 0in /  0.0mm
02:30 34.5 °F /  1.4 °C 33.8 °F /  1.0 °C 29.9in /  1011.1hPa NNE 4mph /  6.4km/h 6mph /  9.7km/h 98% 0in /  0.0mm
02:31 34.5 °F /  1.4 °C 33.8 °F /  1.0 °C 29.9in /  1011.1hPa NE 1.1mph /  1.8km/h 6mph /  9.7km/h 98% 0in /  0.0mm
02:32 34.5 °F /  1.4 °C 33.8 °F /  1.0 °C 29.9in /  1011.1hPa North 2.7mph /  4.3km/h 6mph /  9.7km/h 98% 0in /  0.0mm
02:33 34.5 °F /  1.4 °C 33.8 °F /  1.0 °C 29.9in /  1011.1hPa NNE 2.5mph /  4.0km/h 6mph /  9.7km/h 98% 0in /  0.0mm
02:38 34.5 °F /  1.4 °C 33.8 °F /  1.0 °C 29.9in /  1011.1hPa NNE 3.6mph /  5.8km/h 6mph /  9.7km/h 98% 0in /  0.0mm
02:39 34.5 °F /  1.4 °C 33.8 °F /  1.0 °C 29.9in /  1011.1hPa NNE 4mph /  6.4km/h 6.3mph /  10.1km/h 98% 0in /  0.0mm
02:43 34.5 °F /  1.4 °C 33.8 °F /  1.0 °C 29.9in /  1012.1hPa NE 2.7mph /  4.3km/h 6.3mph /  10.1km/h 98% 0in /  0.0mm
02:44 34.5 °F /  1.4 °C 33.8 °F /  1.0 °C 29.9in /  1012.1hPa Calm   6.3mph /  10.1km/h 98% 0in /  0.0mm
02:48 34.5 °F /  1.4 °C 33.8 °F /  1.0 °C 29.9in /  1012.1hPa NNE 3.6mph /  5.8km/h 6.3mph /  10.1km/h 98% 0in /  0.0mm
02:49 34.5 °F /  1.4 °C 33.8 °F /  1.0 °C 29.9in /  1012.1hPa NNE 3.8mph /  6.1km/h 4.9mph /  7.9km/h 98% 0in /  0.0mm
02:50 34.3 °F /  1.3 °C 33.8 °F /  1.0 °C 29.9in /  1012.1hPa NE 2.9mph /  4.7km/h 4.9mph /  7.9km/h 98% 0in /  0.0mm
02:51 34.3 °F /  1.3 °C 33.8 °F /  1.0 °C 29.9in /  1012.1hPa NE 1.6mph /  2.6km/h 4.9mph /  7.9km/h 98% 0in /  0.0mm
02:52 34.3 °F /  1.3 °C 33.8 °F /  1.0 °C 29.9in /  1012.1hPa NE 3.8mph /  6.1km/h 4.9mph /  7.9km/h 98% 0in /  0.0mm
02:54 34.3 °F /  1.3 °C 33.8 °F /  1.0 °C 29.9in /  1012.1hPa NE 3.8mph /  6.1km/h 4.9mph /  7.9km/h 98% 0in /  0.0mm
02:55 34.3 °F /  1.3 °C 33.8 °F /  1.0 °C 29.9in /  1012.1hPa NE 1.6mph /  2.6km/h 4.9mph /  7.9km/h 98% 0in /  0.0mm
02:58 34.3 °F /  1.3 °C 33.8 °F /  1.0 °C 29.9in /  1012.1hPa Calm   4mph /  6.4km/h 98% 0in /  0.0mm
03:04 34.2 °F /  1.2 °C 33.8 °F /  1.0 °C 29.9in /  1012.1hPa NNE 4mph /  6.4km/h 4.3mph /  6.9km/h 98% 0in /  0.0mm
03:08 34 °F /  1.1 °C 33.8 °F /  1.0 °C 29.9in /  1012.1hPa NE 4.3mph /  6.9km/h 4.3mph /  6.9km/h 98% 0in /  0.0mm
03:09 34 °F /  1.1 °C 33.8 °F /  1.0 °C 29.9in /  1012.1hPa NE 3.6mph /  5.8km/h 4.3mph /  6.9km/h 98% 0in /  0.0mm
03:11 34 °F /  1.1 °C 33.8 °F /  1.0 °C 29.9in /  1012.1hPa NNE 3.6mph /  5.8km/h 5.4mph /  8.7km/h 98% 0in /  0.0mm
03:12 34.2 °F /  1.2 °C 33.8 °F /  1.0 °C 29.9in /  1012.1hPa Calm   5.4mph /  8.7km/h 98% 0in /  0.0mm
03:13 34.2 °F /  1.2 °C 33.8 °F /  1.0 °C 29.9in /  1012.1hPa Calm   5.4mph /  8.7km/h 98% 0in /  0.0mm
03:16 34 °F /  1.1 °C 33.8 °F /  1.0 °C 29.9in /  1012.1hPa Calm   5.4mph /  8.7km/h 98% 0in /  0.0mm
03:18 34 °F /  1.1 °C 33.8 °F /  1.0 °C 29.9in /  1012.1hPa Calm   5.4mph /  8.7km/h 98% 0in /  0.0mm
03:21 34 °F /  1.1 °C 33.8 °F /  1.0 °C 29.9in /  1012.1hPa Calm   1.3mph /  2.1km/h 98% 0in /  0.0mm
03:23 33.8 °F /  1.0 °C 33.8 °F /  1.0 °C 29.9in /  1012.1hPa Calm     98% 0in /  0.0mm
03:24 33.8 °F /  1.0 °C 33.8 °F /  1.0 °C 29.9in /  1012.1hPa NNE 0.9mph /  1.4km/h 3.1mph /  5.0km/h 98% 0in /  0.0mm
03:26 33.8 °F /  1.0 °C 33.8 °F /  1.0 °C 29.9in /  1011.1hPa NNE 2mph /  3.2km/h 3.1mph /  5.0km/h 98% 0in /  0.0mm
03:28 33.8 °F /  1.0 °C 33.8 °F /  1.0 °C 29.9in /  1011.1hPa NE 1.3mph /  2.1km/h 3.6mph /  5.8km/h 98% 0in /  0.0mm
03:29 33.8 °F /  1.0 °C 33.8 °F /  1.0 °C 29.9in /  1011.1hPa Calm   3.6mph /  5.8km/h 98% 0in /  0.0mm
03:30 33.8 °F /  1.0 °C 33.8 °F /  1.0 °C 29.9in /  1011.1hPa Calm   3.6mph /  5.8km/h 98% 0in /  0.0mm
03:31 33.8 °F /  1.0 °C 33.8 °F /  1.0 °C 29.9in /  1011.1hPa Calm   3.6mph /  5.8km/h 98% 0in /  0.0mm
03:32 33.8 °F /  1.0 °C 33.8 °F /  1.0 °C 29.9in /  1011.1hPa Calm   3.6mph /  5.8km/h 98% 0in /  0.0mm
03:33 34 °F /  1.1 °C 33.8 °F /  1.0 °C 29.9in /  1011.1hPa Calm   3.6mph /  5.8km/h 98% 0in /  0.0mm
03:34 34 °F /  1.1 °C 33.8 °F /  1.0 °C 29.9in /  1011.1hPa North 2.7mph /  4.3km/h 3.6mph /  5.8km/h 98% 0in /  0.0mm
03:36 34 °F /  1.1 °C 33.8 °F /  1.0 °C 29.9in /  1011.1hPa Calm   3.6mph /  5.8km/h 98% 0in /  0.0mm
03:37 34 °F /  1.1 °C 33.8 °F /  1.0 °C 29.9in /  1011.1hPa NNE 3.6mph /  5.8km/h 3.6mph /  5.8km/h 98% 0in /  0.0mm
03:38 34 °F /  1.1 °C 33.8 °F /  1.0 °C 29.9in /  1011.1hPa NNE 3.8mph /  6.1km/h 4.3mph /  6.9km/h 98% 0in /  0.0mm
03:39 34 °F /  1.1 °C 33.8 °F /  1.0 °C 29.9in /  1011.1hPa NNE 2.5mph /  4.0km/h 4.3mph /  6.9km/h 98% 0in /  0.0mm
03:40 34 °F /  1.1 °C 33.8 °F /  1.0 °C 29.9in /  1011.1hPa NNE 4mph /  6.4km/h 4.3mph /  6.9km/h 98% 0in /  0.0mm
03:41 34 °F /  1.1 °C 33.8 °F /  1.0 °C 29.9in /  1011.1hPa NE 4mph /  6.4km/h 4.3mph /  6.9km/h 98% 0in /  0.0mm
03:42 34 °F /  1.1 °C 33.8 °F /  1.0 °C 29.9in /  1011.1hPa NNE 3.6mph /  5.8km/h 4.3mph /  6.9km/h 98% 0in /  0.0mm
03:44 34 °F /  1.1 °C 33.8 °F /  1.0 °C 29.9in /  1011.1hPa NE 3.8mph /  6.1km/h 4.3mph /  6.9km/h 98% 0in /  0.0mm
03:48 34 °F /  1.1 °C 33.8 °F /  1.0 °C 29.9in /  1011.1hPa Calm   4mph /  6.4km/h 98% 0in /  0.0mm
03:50 33.8 °F /  1.0 °C 33.8 °F /  1.0 °C 29.9in /  1011.1hPa Calm   4mph /  6.4km/h 98% 0in /  0.0mm
03:54 33.8 °F /  1.0 °C 33.8 °F /  1.0 °C 29.9in /  1011.1hPa Calm   3.8mph /  6.1km/h 98% 0in /  0.0mm
03:56 33.8 °F /  1.0 °C 33.8 °F /  1.0 °C 29.9in /  1011.1hPa Calm   3.4mph /  5.5km/h 98% 0in /  0.0mm
03:59 33.8 °F /  1.0 °C 33.8 °F /  1.0 °C 29.9in /  1011.1hPa Calm     98% 0in /  0.0mm
04:00 33.8 °F /  1.0 °C 33.8 °F /  1.0 °C 29.9in /  1011.1hPa Calm     98% 0in /  0.0mm
04:02 33.8 °F /  1.0 °C 33.8 °F /  1.0 °C 29.9in /  1011.1hPa NE 1.6mph /  2.6km/h 1.6mph /  2.6km/h 98% 0in /  0.0mm
04:03 33.8 °F /  1.0 °C 33.8 °F /  1.0 °C 29.9in /  1011.1hPa Calm   2.5mph /  4.0km/h 98% 0in /  0.0mm
04:04 33.8 °F /  1.0 °C 33.8 °F /  1.0 °C 29.9in /  1011.1hPa Calm   2.5mph /  4.0km/h 98% 0in /  0.0mm
04:05 33.8 °F /  1.0 °C 33.8 °F /  1.0 °C 29.9in /  1011.1hPa Calm   2.5mph /  4.0km/h 98% 0in /  0.0mm
04:06 33.8 °F /  1.0 °C 33.8 °F /  1.0 °C 29.9in /  1011.1hPa Calm   2.5mph /  4.0km/h 98% 0in /  0.0mm
04:08 33.8 °F /  1.0 °C 33.8 °F /  1.0 °C 29.9in /  1011.1hPa Calm   2.5mph /  4.0km/h 98% 0in /  0.0mm
04:09 33.8 °F /  1.0 °C 33.8 °F /  1.0 °C 29.9in /  1011.1hPa Calm   2.5mph /  4.0km/h 98% 0in /  0.0mm
04:10 33.8 °F /  1.0 °C 33.8 °F /  1.0 °C 29.9in /  1011.1hPa Calm   2.5mph /  4.0km/h 98% 0in /  0.0mm
04:13 33.8 °F /  1.0 °C 33.8 °F /  1.0 °C 29.9in /  1011.1hPa Calm     98% 0in /  0.0mm
04:14 33.8 °F /  1.0 °C 33.8 °F /  1.0 °C 29.9in /  1011.1hPa Calm     98% 0in /  0.0mm
04:15 33.8 °F /  1.0 °C 33.8 °F /  1.0 °C 29.9in /  1011.1hPa Calm     98% 0in /  0.0mm
04:18 34 °F /  1.1 °C 33.8 °F /  1.0 °C 29.9in /  1011.1hPa Calm     98% 0in /  0.0mm
04:19 34 °F /  1.1 °C 33.8 °F /  1.0 °C 29.9in /  1011.1hPa Calm     98% 0in /  0.0mm
04:20 34 °F /  1.1 °C 33.8 °F /  1.0 °C 29.9in /  1011.1hPa Calm     98% 0in /  0.0mm
04:21 34 °F /  1.1 °C 33.8 °F /  1.0 °C 29.9in /  1011.1hPa Calm     98% 0in /  0.0mm
04:22 34 °F /  1.1 °C 33.8 °F /  1.0 °C 29.9in /  1011.1hPa Calm     98% 0in /  0.0mm
04:23 34 °F /  1.1 °C 33.8 °F /  1.0 °C 29.9in /  1011.1hPa Calm     98% 0in /  0.0mm
04:24 34 °F /  1.1 °C 33.8 °F /  1.0 °C 29.9in /  1011.1hPa Calm     98% 0in /  0.0mm
04:25 34 °F /  1.1 °C 33.8 °F /  1.0 °C 29.9in /  1011.1hPa Calm     98% 0in /  0.0mm
04:26 34 °F /  1.1 °C 33.8 °F /  1.0 °C 29.9in /  1011.1hPa Calm     98% 0in /  0.0mm
04:27 34 °F /  1.1 °C 33.8 °F /  1.0 °C 29.9in /  1011.1hPa Calm   2.2mph /  3.5km/h 98% 0in /  0.0mm
04:28 34 °F /  1.1 °C 33.8 °F /  1.0 °C 29.9in /  1011.1hPa Calm   2.2mph /  3.5km/h 98% 0in /  0.0mm
04:29 34 °F /  1.1 °C 33.8 °F /  1.0 °C 29.9in /  1011.1hPa Calm   2.2mph /  3.5km/h 98% 0in /  0.0mm
04:30 34 °F /  1.1 °C 33.8 °F /  1.0 °C 29.9in /  1011.1hPa Calm   2.2mph /  3.5km/h 98% 0in /  0.0mm
04:32 34 °F /  1.1 °C 33.8 °F /  1.0 °C 29.9in /  1011.1hPa Calm   2.2mph /  3.5km/h 98% 0in /  0.0mm
04:33 34 °F /  1.1 °C 33.8 °F /  1.0 °C 29.9in /  1011.1hPa Calm   2.2mph /  3.5km/h 98% 0in /  0.0mm
04:34 34 °F /  1.1 °C 33.8 °F /  1.0 °C 29.9in /  1011.1hPa Calm   2.2mph /  3.5km/h 98% 0in /  0.0mm
04:35 34 °F /  1.1 °C 33.8 °F /  1.0 °C 29.9in /  1011.1hPa Calm   2.2mph /  3.5km/h 98% 0in /  0.0mm
04:36 34 °F /  1.1 °C 33.8 °F /  1.0 °C 29.9in /  1011.1hPa Calm   2.2mph /  3.5km/h 98% 0in /  0.0mm
04:37 33.8 °F /  1.0 °C 33.8 °F /  1.0 °C 29.9in /  1011.1hPa Calm     98% 0in /  0.0mm
04:38 33.8 °F /  1.0 °C 33.8 °F /  1.0 °C 29.9in /  1011.1hPa Calm     98% 0in /  0.0mm
04:41 33.8 °F /  1.0 °C 33.8 °F /  1.0 °C 29.9in /  1011.1hPa Calm     98% 0in /  0.0mm
04:42 33.8 °F /  1.0 °C 33.8 °F /  1.0 °C 29.9in /  1011.1hPa NNE 2mph /  3.2km/h 2.9mph /  4.7km/h 98% 0in /  0.0mm
04:43 33.8 °F /  1.0 °C 33.8 °F /  1.0 °C 29.9in /  1011.1hPa NNE 2.7mph /  4.3km/h 3.1mph /  5.0km/h 98% 0in /  0.0mm
04:44 33.8 °F /  1.0 °C 33.8 °F /  1.0 °C 29.9in /  1011.1hPa Calm   3.1mph /  5.0km/h 98% 0in /  0.0mm
04:46 33.8 °F /  1.0 °C 33.8 °F /  1.0 °C 29.9in /  1011.1hPa Calm   3.1mph /  5.0km/h 98% 0in /  0.0mm
04:48 33.8 °F /  1.0 °C 33.8 °F /  1.0 °C 29.9in /  1011.1hPa Calm   3.1mph /  5.0km/h 98% 0in /  0.0mm
04:50 33.8 °F /  1.0 °C 33.8 °F /  1.0 °C 29.9in /  1011.1hPa Calm   3.1mph /  5.0km/h 98% 0in /  0.0mm
04:52 33.8 °F /  1.0 °C 33.8 °F /  1.0 °C 29.9in /  1011.1hPa Calm   3.1mph /  5.0km/h 98% 0in /  0.0mm
04:53 33.8 °F /  1.0 °C 33.8 °F /  1.0 °C 29.9in /  1011.1hPa NNE 2.2mph /  3.5km/h 3.1mph /  5.0km/h 98% 0in /  0.0mm
04:54 33.8 °F /  1.0 °C 33.8 °F /  1.0 °C 29.9in /  1011.1hPa NNE 1.6mph /  2.6km/h 2.7mph /  4.3km/h 98% 0in /  0.0mm
04:55 33.8 °F /  1.0 °C 33.8 °F /  1.0 °C 29.9in /  1011.1hPa Calm   2.7mph /  4.3km/h 98% 0in /  0.0mm
04:56 33.8 °F /  1.0 °C 33.8 °F /  1.0 °C 29.9in /  1011.1hPa Calm   2.7mph /  4.3km/h 98% 0in /  0.0mm
04:59 33.8 °F /  1.0 °C 33.8 °F /  1.0 °C 29.9in /  1011.1hPa Calm   2.7mph /  4.3km/h 98% 0in /  0.0mm
05:00 33.8 °F /  1.0 °C 33.8 °F /  1.0 °C 29.9in /  1011.1hPa Calm   2.7mph /  4.3km/h 98% 0in /  0.0mm
05:02 34 °F /  1.1 °C 33.8 °F /  1.0 °C 29.9in /  1011.1hPa Calm   2.2mph /  3.5km/h 98% 0in /  0.0mm
05:03 34 °F /  1.1 °C 33.8 °F /  1.0 °C 29.9in /  1011.1hPa Calm   2.2mph /  3.5km/h 98% 0in /  0.0mm
05:08 33.8 °F /  1.0 °C 33.8 °F /  1.0 °C 29.9in /  1011.1hPa Calm   2.7mph /  4.3km/h 98% 0in /  0.0mm
05:09 33.8 °F /  1.0 °C 33.8 °F /  1.0 °C 29.9in /  1011.1hPa Calm   2.7mph /  4.3km/h 98% 0in /  0.0mm
05:11 33.8 °F /  1.0 °C 33.8 °F /  1.0 °C 29.8in /  1010.0hPa Calm   2.7mph /  4.3km/h 98% 0in /  0.0mm
05:14 33.8 °F /  1.0 °C 33.8 °F /  1.0 °C 29.8in /  1010.0hPa Calm   2.7mph /  4.3km/h 98% 0in /  0.0mm
05:16 33.8 °F /  1.0 °C 33.8 °F /  1.0 °C 29.8in /  1010.0hPa Calm     98% 0in /  0.0mm
05:17 33.8 °F /  1.0 °C 33.8 °F /  1.0 °C 29.8in /  1010.0hPa Calm     98% 0in /  0.0mm
05:18 33.8 °F /  1.0 °C 33.8 °F /  1.0 °C 29.8in /  1010.0hPa Calm     98% 0in /  0.0mm
05:20 33.8 °F /  1.0 °C 33.8 °F /  1.0 °C 29.8in /  1010.0hPa Calm     98% 0in /  0.0mm
05:23 33.6 °F /  0.9 °C 33.8 °F /  1.0 °C 29.8in /  1010.0hPa Calm     98% 0in /  0.0mm
05:24 33.6 °F /  0.9 °C 33.8 °F /  1.0 °C 29.8in /  1010.0hPa Calm     98% 0in /  0.0mm
05:25 33.6 °F /  0.9 °C 33.8 °F /  1.0 °C 29.8in /  1010.0hPa Calm     98% 0in /  0.0mm
05:26 33.6 °F /  0.9 °C 33.8 °F /  1.0 °C 29.8in /  1010.0hPa Calm     98% 0in /  0.0mm
05:28 33.6 °F /  0.9 °C 33.8 °F /  1.0 °C 29.8in /  1010.0hPa Calm     98% 0in /  0.0mm
05:29 33.6 °F /  0.9 °C 33.8 °F /  1.0 °C 29.8in /  1010.0hPa Calm     98% 0in /  0.0mm
05:32 33.4 °F /  0.8 °C 33.8 °F /  1.0 °C 29.8in /  1010.0hPa Calm     98% 0in /  0.0mm
05:34 33.4 °F /  0.8 °C 33.8 °F /  1.0 °C 29.8in /  1010.0hPa Calm     98% 0in /  0.0mm
05:36 33.4 °F /  0.8 °C 33.8 °F /  1.0 °C 29.8in /  1010.0hPa Calm     98% 0in /  0.0mm
05:37 33.4 °F /  0.8 °C 33.8 °F /  1.0 °C 29.8in /  1010.0hPa Calm     98% 0in /  0.0mm
05:39 33.4 °F /  0.8 °C 33.8 °F /  1.0 °C 29.8in /  1010.0hPa Calm     98% 0in /  0.0mm
05:40 33.4 °F /  0.8 °C 33.8 °F /  1.0 °C 29.8in /  1010.0hPa Calm   2.5mph /  4.0km/h 98% 0in /  0.0mm
05:41 33.4 °F /  0.8 °C 33.8 °F /  1.0 °C 29.8in /  1009.0hPa Calm   2.5mph /  4.0km/h 98% 0in /  0.0mm
05:42 33.4 °F /  0.8 °C 33.8 °F /  1.0 °C 29.8in /  1009.0hPa Calm   2.5mph /  4.0km/h 98% 0in /  0.0mm
05:43 33.4 °F /  0.8 °C 33.8 °F /  1.0 °C 29.8in /  1009.0hPa Calm   2.5mph /  4.0km/h 98% 0in /  0.0mm
05:45 33.4 °F /  0.8 °C 33.8 °F /  1.0 °C 29.8in /  1009.0hPa Calm   2.5mph /  4.0km/h 98% 0in /  0.0mm
05:46 33.6 °F /  0.9 °C 33.8 °F /  1.0 °C 29.8in /  1009.0hPa Calm   2.5mph /  4.0km/h 98% 0in /  0.0mm
05:47 33.6 °F /  0.9 °C 33.8 °F /  1.0 °C 29.8in /  1009.0hPa Calm   2.5mph /  4.0km/h 98% 0in /  0.0mm
05:48 33.6 °F /  0.9 °C 33.8 °F /  1.0 °C 29.8in /  1009.0hPa Calm   2.5mph /  4.0km/h 98% 0in /  0.0mm
05:49 33.6 °F /  0.9 °C 33.8 °F /  1.0 °C 29.8in /  1009.0hPa NE 2mph /  3.2km/h 2.5mph /  4.0km/h 98% 0in /  0.0mm
05:50 33.6 °F /  0.9 °C 33.8 °F /  1.0 °C 29.8in /  1009.0hPa Calm   2.5mph /  4.0km/h 98% 0in /  0.0mm
05:51 33.6 °F /  0.9 °C 33.8 °F /  1.0 °C 29.8in /  1009.0hPa Calm   2mph /  3.2km/h 98% 0in /  0.0mm
05:53 33.4 °F /  0.8 °C 33.8 °F /  1.0 °C 29.8in /  1009.0hPa Calm   2mph /  3.2km/h 98% 0in /  0.0mm
05:55 33.4 °F /  0.8 °C 33.8 °F /  1.0 °C 29.8in /  1009.0hPa Calm   2mph /  3.2km/h 98% 0in /  0.0mm
05:56 33.4 °F /  0.8 °C 33.8 °F /  1.0 °C 29.8in /  1009.0hPa Calm   2mph /  3.2km/h 98% 0in /  0.0mm
05:57 33.3 °F /  0.7 °C 33.8 °F /  1.0 °C 29.8in /  1009.0hPa Calm   2mph /  3.2km/h 98% 0in /  0.0mm
05:59 33.3 °F /  0.7 °C 33.8 °F /  1.0 °C 29.8in /  1009.0hPa Calm   2mph /  3.2km/h 98% 0in /  0.0mm
06:00 33.3 °F /  0.7 °C 33.8 °F /  1.0 °C 29.8in /  1009.0hPa Calm   2mph /  3.2km/h 98% 0in /  0.0mm
06:01 33.3 °F /  0.7 °C 33.8 °F /  1.0 °C 29.8in /  1009.0hPa Calm   2mph /  3.2km/h 98% 0in /  0.0mm
06:03 33.3 °F /  0.7 °C 33.8 °F /  1.0 °C 29.8in /  1009.0hPa Calm   2mph /  3.2km/h 98% 0in /  0.0mm
06:05 33.3 °F /  0.7 °C 33.8 °F /  1.0 °C 29.8in /  1009.0hPa Calm     98% 0in /  0.0mm
06:06 33.3 °F /  0.7 °C 33.8 °F /  1.0 °C 29.8in /  1009.0hPa Calm     98% 0in /  0.0mm
06:07 33.3 °F /  0.7 °C 33.8 °F /  1.0 °C 29.8in /  1009.0hPa Calm     98% 0in /  0.0mm
06:09 33.1 °F /  0.6 °C 33.8 °F /  1.0 °C 29.8in /  1009.0hPa Calm     98% 0in /  0.0mm
06:10 33.1 °F /  0.6 °C 33.8 °F /  1.0 °C 29.8in /  1009.0hPa Calm     98% 0in /  0.0mm
06:11 33.1 °F /  0.6 °C 33.8 °F /  1.0 °C 29.8in /  1010.0hPa Calm     98% 0in /  0.0mm
06:12 33.1 °F /  0.6 °C 33.8 °F /  1.0 °C 29.8in /  1010.0hPa Calm     98% 0in /  0.0mm
06:14 33.1 °F /  0.6 °C 33.8 °F /  1.0 °C 29.8in /  1010.0hPa Calm     98% 0in /  0.0mm
06:15 33.1 °F /  0.6 °C 33.8 °F /  1.0 °C 29.8in /  1010.0hPa Calm     98% 0in /  0.0mm
06:16 33.1 °F /  0.6 °C 33.8 °F /  1.0 °C 29.8in /  1010.0hPa Calm     98% 0in /  0.0mm
06:17 33.1 °F /  0.6 °C 33.8 °F /  1.0 °C 29.8in /  1010.0hPa Calm     98% 0in /  0.0mm
06:19 33.1 °F /  0.6 °C 33.8 °F /  1.0 °C 29.8in /  1010.0hPa Calm     98% 0in /  0.0mm
06:20 33.1 °F /  0.6 °C 33.8 °F /  1.0 °C 29.8in /  1010.0hPa Calm     98% 0in /  0.0mm
06:21 33.1 °F /  0.6 °C 33.8 °F /  1.0 °C 29.8in /  1010.0hPa Calm     98% 0in /  0.0mm
06:22 33.1 °F /  0.6 °C 33.8 °F /  1.0 °C 29.8in /  1010.0hPa Calm     98% 0in /  0.0mm
06:23 33.1 °F /  0.6 °C 33.8 °F /  1.0 °C 29.8in /  1010.0hPa Calm     98% 0in /  0.0mm
06:24 33.1 °F /  0.6 °C 33.8 °F /  1.0 °C 29.8in /  1010.0hPa NE 2mph /  3.2km/h 2mph /  3.2km/h 98% 0in /  0.0mm
06:26 33.1 °F /  0.6 °C 33.8 °F /  1.0 °C 29.8in /  1010.0hPa NNE 2.2mph /  3.5km/h 2.2mph /  3.5km/h 98% 0in /  0.0mm
06:27 33.1 °F /  0.6 °C 33.8 °F /  1.0 °C 29.8in /  1009.0hPa Calm   2.2mph /  3.5km/h 98% 0in /  0.0mm
06:28 33.1 °F /  0.6 °C 33.8 °F /  1.0 °C 29.8in /  1009.0hPa Calm   2.5mph /  4.0km/h 98% 0in /  0.0mm
06:29 33.1 °F /  0.6 °C 33.8 °F /  1.0 °C 29.8in /  1009.0hPa Calm   3.6mph /  5.8km/h 98% 0in /  0.0mm
06:30 33.1 °F /  0.6 °C 33.8 °F /  1.0 °C 29.8in /  1009.0hPa North 2.2mph /  3.5km/h 3.6mph /  5.8km/h 98% 0in /  0.0mm
06:31 33.1 °F /  0.6 °C 33.8 °F /  1.0 °C 29.8in /  1009.0hPa Calm   3.6mph /  5.8km/h 98% 0in /  0.0mm
06:32 33.1 °F /  0.6 °C 33.8 °F /  1.0 °C 29.8in /  1009.0hPa Calm   3.6mph /  5.8km/h 98% 0in /  0.0mm
06:33 33.1 °F /  0.6 °C 33.8 °F /  1.0 °C 29.8in /  1009.0hPa Calm   3.6mph /  5.8km/h 98% 0in /  0.0mm
06:35 33.1 °F /  0.6 °C 33.8 °F /  1.0 °C 29.8in /  1009.0hPa Calm   3.6mph /  5.8km/h 98% 0in /  0.0mm
06:36 33.1 °F /  0.6 °C 33.8 °F /  1.0 °C 29.8in /  1009.0hPa Calm   3.6mph /  5.8km/h 98% 0in /  0.0mm
06:38 33.1 °F /  0.6 °C 33.8 °F /  1.0 °C 29.8in /  1009.0hPa Calm   3.6mph /  5.8km/h 98% 0in /  0.0mm
06:39 33.1 °F /  0.6 °C 33.8 °F /  1.0 °C 29.8in /  1009.0hPa NNE 2.2mph /  3.5km/h 3.4mph /  5.5km/h 98% 0in /  0.0mm
06:40 33.3 °F /  0.7 °C 33.8 °F /  1.0 °C 29.8in /  1009.0hPa Calm   2.5mph /  4.0km/h 98% 0in /  0.0mm
06:42 33.3 °F /  0.7 °C 33.8 °F /  1.0 °C 29.8in /  1010.0hPa Calm   2.5mph /  4.0km/h 98% 0in /  0.0mm
06:43 33.3 °F /  0.7 °C 33.8 °F /  1.0 °C 29.8in /  1010.0hPa NNE 2.5mph /  4.0km/h 3.1mph /  5.0km/h 98% 0in /  0.0mm
06:44 33.3 °F /  0.7 °C 33.8 °F /  1.0 °C 29.8in /  1010.0hPa NE 2.5mph /  4.0km/h 3.1mph /  5.0km/h 98% 0in /  0.0mm
06:45 33.3 °F /  0.7 °C 33.8 °F /  1.0 °C 29.8in /  1010.0hPa NNE 2.9mph /  4.7km/h 3.1mph /  5.0km/h 98% 0in /  0.0mm
06:46 33.3 °F /  0.7 °C 33.8 °F /  1.0 °C 29.8in /  1010.0hPa Calm   3.1mph /  5.0km/h 98% 0in /  0.0mm
06:47 33.3 °F /  0.7 °C 33.8 °F /  1.0 °C 29.8in /  1010.0hPa Calm   3.1mph /  5.0km/h 98% 0in /  0.0mm
06:48 33.3 °F /  0.7 °C 33.8 °F /  1.0 °C 29.8in /  1010.0hPa Calm   3.1mph /  5.0km/h 98% 0in /  0.0mm
06:49 33.3 °F /  0.7 °C 33.8 °F /  1.0 °C 29.8in /  1010.0hPa Calm   3.1mph /  5.0km/h 98% 0in /  0.0mm
06:50 33.3 °F /  0.7 °C 33.8 °F /  1.0 °C 29.8in /  1010.0hPa Calm   3.1mph /  5.0km/h 98% 0in /  0.0mm
06:51 33.1 °F /  0.6 °C 33.8 °F /  1.0 °C 29.8in /  1010.0hPa Calm   3.1mph /  5.0km/h 98% 0in /  0.0mm
06:53 33.1 °F /  0.6 °C 33.8 °F /  1.0 °C 29.8in /  1010.0hPa Calm   2.9mph /  4.7km/h 98% 0in /  0.0mm
06:54 33.1 °F /  0.6 °C 33.8 °F /  1.0 °C 29.8in /  1010.0hPa Calm   2.9mph /  4.7km/h 98% 0in /  0.0mm
06:57 33.1 °F /  0.6 °C 33.8 °F /  1.0 °C 29.8in /  1009.0hPa NNE 1.3mph /  2.1km/h 2.2mph /  3.5km/h 98% 0in /  0.0mm
06:58 33.1 °F /  0.6 °C 33.8 °F /  1.0 °C 29.8in /  1009.0hPa Calm   2.2mph /  3.5km/h 98% 0in /  0.0mm
06:59 33.1 °F /  0.6 °C 33.8 °F /  1.0 °C 29.8in /  1009.0hPa Calm   2.5mph /  4.0km/h 98% 0in /  0.0mm
07:00 33.1 °F /  0.6 °C 33.8 °F /  1.0 °C 29.8in /  1009.0hPa NE 3.6mph /  5.8km/h 3.6mph /  5.8km/h 98% 0in /  0.0mm
07:01 33.1 °F /  0.6 °C 33.8 °F /  1.0 °C 29.8in /  1009.0hPa Calm   3.6mph /  5.8km/h 98% 0in /  0.0mm
07:02 33.1 °F /  0.6 °C 33.8 °F /  1.0 °C 29.8in /  1009.0hPa Calm   3.6mph /  5.8km/h 98% 0in /  0.0mm
07:03 32.9 °F /  0.5 °C 33.8 °F /  1.0 °C 29.8in /  1009.0hPa Calm   3.6mph /  5.8km/h 98% 0in /  0.0mm
07:04 32.9 °F /  0.5 °C 33.8 °F /  1.0 °C 29.8in /  1009.0hPa Calm   3.6mph /  5.8km/h 98% 0in /  0.0mm
07:06 32.9 °F /  0.5 °C 33.8 °F /  1.0 °C 29.8in /  1009.0hPa Calm   3.6mph /  5.8km/h 98% 0in /  0.0mm
07:07 32.9 °F /  0.5 °C 33.8 °F /  1.0 °C 29.8in /  1009.0hPa Calm   3.6mph /  5.8km/h 98% 0in /  0.0mm
07:08 32.9 °F /  0.5 °C 33.8 °F /  1.0 °C 29.8in /  1009.0hPa Calm   3.6mph /  5.8km/h 98% 0in /  0.0mm
07:10 32.9 °F /  0.5 °C 33.8 °F /  1.0 °C 29.8in /  1009.0hPa NE 2.9mph /  4.7km/h 3.6mph /  5.8km/h 98% 0in /  0.0mm
07:11 32.9 °F /  0.5 °C 33.8 °F /  1.0 °C 29.8in /  1009.0hPa NNE 1.3mph /  2.1km/h 3.4mph /  5.5km/h 98% 0in /  0.0mm
07:12 32.9 °F /  0.5 °C 33.8 °F /  1.0 °C 29.8in /  1009.0hPa Calm   3.4mph /  5.5km/h 98% 0in /  0.0mm
07:13 32.9 °F /  0.5 °C 33.8 °F /  1.0 °C 29.8in /  1009.0hPa Calm   3.4mph /  5.5km/h 98% 0in /  0.0mm
07:14 32.9 °F /  0.5 °C 33.8 °F /  1.0 °C 29.8in /  1009.0hPa Calm   3.4mph /  5.5km/h 98% 0in /  0.0mm
07:15 32.9 °F /  0.5 °C 33.8 °F /  1.0 °C 29.8in /  1009.0hPa Calm   3.4mph /  5.5km/h 98% 0in /  0.0mm
07:18 33.1 °F /  0.6 °C 33.8 °F /  1.0 °C 29.8in /  1009.0hPa Calm   3.4mph /  5.5km/h 98% 0in /  0.0mm
07:19 33.1 °F /  0.6 °C 33.8 °F /  1.0 °C 29.8in /  1009.0hPa Calm   3.4mph /  5.5km/h 98% 0in /  0.0mm
07:20 33.1 °F /  0.6 °C 33.8 °F /  1.0 °C 29.8in /  1009.0hPa Calm   3.1mph /  5.0km/h 98% 0in /  0.0mm
07:21 33.1 °F /  0.6 °C 33.8 °F /  1.0 °C 29.8in /  1009.0hPa Calm   3.1mph /  5.0km/h 98% 0in /  0.0mm
07:22 33.3 °F /  0.7 °C 33.8 °F /  1.0 °C 29.8in /  1009.0hPa Calm   2.9mph /  4.7km/h 98% 0in /  0.0mm
07:27 33.4 °F /  0.8 °C 33.8 °F /  1.0 °C 29.8in /  1009.0hPa ENE 2.7mph /  4.3km/h 2.7mph /  4.3km/h 98% 0in /  0.0mm
07:29 33.4 °F /  0.8 °C 33.8 °F /  1.0 °C 29.8in /  1009.0hPa Calm   3.4mph /  5.5km/h 98% 0in /  0.0mm
07:30 33.6 °F /  0.9 °C 33.8 °F /  1.0 °C 29.8in /  1009.0hPa Calm   3.4mph /  5.5km/h 98% 0in /  0.0mm
07:32 33.6 °F /  0.9 °C 33.8 °F /  1.0 °C 29.8in /  1009.0hPa Calm   3.6mph /  5.8km/h 98% 0in /  0.0mm
07:33 33.6 °F /  0.9 °C 33.8 °F /  1.0 °C 29.8in /  1009.0hPa NE 3.8mph /  6.1km/h 3.8mph /  6.1km/h 98% 0in /  0.0mm
07:34 33.6 °F /  0.9 °C 33.8 °F /  1.0 °C 29.8in /  1009.0hPa ENE 4mph /  6.4km/h 4mph /  6.4km/h 98% 0in /  0.0mm
07:35 33.6 °F /  0.9 °C 33.8 °F /  1.0 °C 29.8in /  1009.0hPa NE 3.8mph /  6.1km/h 4mph /  6.4km/h 98% 0in /  0.0mm
07:38 33.8 °F /  1.0 °C 33.8 °F /  1.0 °C 29.8in /  1009.0hPa NE 2.9mph /  4.7km/h 4.3mph /  6.9km/h 98% 0in /  0.0mm
07:40 33.8 °F /  1.0 °C 33.8 °F /  1.0 °C 29.8in /  1009.0hPa NE 3.1mph /  5.0km/h 4.3mph /  6.9km/h 98% 0in /  0.0mm
07:41 33.8 °F /  1.0 °C 33.8 °F /  1.0 °C 29.8in /  1009.0hPa NE 3.6mph /  5.8km/h 4.3mph /  6.9km/h 98% 0in /  0.0mm
07:43 33.8 °F /  1.0 °C 33.8 °F /  1.0 °C 29.8in /  1009.0hPa ENE 3.6mph /  5.8km/h 4.3mph /  6.9km/h 98% 0in /  0.0mm
07:44 33.8 °F /  1.0 °C 33.8 °F /  1.0 °C 29.8in /  1009.0hPa NE 4.3mph /  6.9km/h 4.3mph /  6.9km/h 98% 0in /  0.0mm
07:46 33.8 °F /  1.0 °C 33.8 °F /  1.0 °C 29.8in /  1009.0hPa Calm   4.7mph /  7.6km/h 98% 0in /  0.0mm
07:47 33.8 °F /  1.0 °C 33.8 °F /  1.0 °C 29.8in /  1009.0hPa Calm   4.7mph /  7.6km/h 98% 0in /  0.0mm
07:48 33.8 °F /  1.0 °C 33.8 °F /  1.0 °C 29.8in /  1009.0hPa Calm   4.7mph /  7.6km/h 98% 0in /  0.0mm
07:50 33.8 °F /  1.0 °C 33.8 °F /  1.0 °C 29.8in /  1009.0hPa Calm   4.7mph /  7.6km/h 98% 0in /  0.0mm
07:53 33.8 °F /  1.0 °C 33.8 °F /  1.0 °C 29.8in /  1009.0hPa Calm   4.7mph /  7.6km/h 98% 0in /  0.0mm
07:54 33.8 °F /  1.0 °C 33.8 °F /  1.0 °C 29.8in /  1009.0hPa Calm     98% 0in /  0.0mm
07:56 33.8 °F /  1.0 °C 33.8 °F /  1.0 °C 29.8in /  1009.0hPa Calm     98% 0in /  0.0mm
07:58 33.8 °F /  1.0 °C 33.8 °F /  1.0 °C 29.8in /  1009.0hPa Calm     98% 0in /  0.0mm
07:59 33.8 °F /  1.0 °C 33.8 °F /  1.0 °C 29.8in /  1009.0hPa NNE 3.4mph /  5.5km/h 3.4mph /  5.5km/h 98% 0in /  0.0mm
08:00 33.6 °F /  0.9 °C 33.8 °F /  1.0 °C 29.8in /  1009.0hPa NE 4.3mph /  6.9km/h 4.3mph /  6.9km/h 98% 0in /  0.0mm
08:01 33.6 °F /  0.9 °C 33.8 °F /  1.0 °C 29.8in /  1009.0hPa NE 4.3mph /  6.9km/h 4.3mph /  6.9km/h 98% 0in /  0.0mm
08:04 33.6 °F /  0.9 °C 33.8 °F /  1.0 °C 29.8in /  1009.0hPa NNE 4mph /  6.4km/h 4.3mph /  6.9km/h 98% 0in /  0.0mm
08:05 33.6 °F /  0.9 °C 33.8 °F /  1.0 °C 29.8in /  1009.0hPa Calm   4.3mph /  6.9km/h 98% 0in /  0.0mm
08:06 33.4 °F /  0.8 °C 33.8 °F /  1.0 °C 29.8in /  1009.0hPa NNE 3.1mph /  5.0km/h 4.3mph /  6.9km/h 98% 0in /  0.0mm
08:08 33.4 °F /  0.8 °C 33.8 °F /  1.0 °C 29.8in /  1009.0hPa NNE 3.1mph /  5.0km/h 4.3mph /  6.9km/h 98% 0in /  0.0mm
08:09 33.4 °F /  0.8 °C 33.8 °F /  1.0 °C 29.8in /  1009.0hPa Calm   4.3mph /  6.9km/h 98% 0in /  0.0mm
08:10 33.4 °F /  0.8 °C 33.8 °F /  1.0 °C 29.8in /  1009.0hPa Calm   4.3mph /  6.9km/h 98% 0in /  0.0mm
08:12 33.4 °F /  0.8 °C 33.8 °F /  1.0 °C 29.8in /  1009.0hPa NNE 2mph /  3.2km/h 4mph /  6.4km/h 98% 0in /  0.0mm
08:13 33.4 °F /  0.8 °C 33.8 °F /  1.0 °C 29.8in /  1009.0hPa Calm   4mph /  6.4km/h 98% 0in /  0.0mm
08:15 33.4 °F /  0.8 °C 33.8 °F /  1.0 °C 29.8in /  1009.0hPa Calm   3.6mph /  5.8km/h 98% 0in /  0.0mm
08:16 33.4 °F /  0.8 °C 33.8 °F /  1.0 °C 29.8in /  1009.0hPa Calm   3.6mph /  5.8km/h 98% 0in /  0.0mm
08:17 33.4 °F /  0.8 °C 33.8 °F /  1.0 °C 29.8in /  1009.0hPa North 2.7mph /  4.3km/h 3.4mph /  5.5km/h 98% 0in /  0.0mm
08:18 33.4 °F /  0.8 °C 33.8 °F /  1.0 °C 29.8in /  1009.0hPa NNE 3.1mph /  5.0km/h 3.6mph /  5.8km/h 98% 0in /  0.0mm
08:19 33.4 °F /  0.8 °C 33.8 °F /  1.0 °C 29.8in /  1009.0hPa NE 3.8mph /  6.1km/h 3.8mph /  6.1km/h 98% 0in /  0.0mm
08:20 33.4 °F /  0.8 °C 33.8 °F /  1.0 °C 29.8in /  1009.0hPa NNE 3.4mph /  5.5km/h 3.8mph /  6.1km/h 98% 0in /  0.0mm
08:22 33.4 °F /  0.8 °C 33.8 °F /  1.0 °C 29.8in /  1009.0hPa Calm   3.8mph /  6.1km/h 98% 0in /  0.0mm
08:25 33.4 °F /  0.8 °C 33.8 °F /  1.0 °C 29.8in /  1009.0hPa Calm   3.8mph /  6.1km/h 98% 0in /  0.0mm
08:26 33.4 °F /  0.8 °C 33.8 °F /  1.0 °C 29.8in /  1009.0hPa Calm   3.8mph /  6.1km/h 98% 0in /  0.0mm
08:27 33.4 °F /  0.8 °C 33.8 °F /  1.0 °C 29.8in /  1009.0hPa Calm   3.8mph /  6.1km/h 98% 0in /  0.0mm
08:30 33.6 °F /  0.9 °C 33.8 °F /  1.0 °C 29.8in /  1009.0hPa Calm   3.4mph /  5.5km/h 98% 0in /  0.0mm
08:31 33.6 °F /  0.9 °C 33.8 °F /  1.0 °C 29.8in /  1009.0hPa Calm   3.1mph /  5.0km/h 98% 0in /  0.0mm
08:32 33.6 °F /  0.9 °C 33.8 °F /  1.0 °C 29.8in /  1009.0hPa ENE 2.7mph /  4.3km/h 3.1mph /  5.0km/h 98% 0in /  0.0mm
08:33 33.6 °F /  0.9 °C 33.8 °F /  1.0 °C 29.8in /  1009.0hPa ENE 2.2mph /  3.5km/h 3.1mph /  5.0km/h 98% 0in /  0.0mm
08:34 33.6 °F /  0.9 °C 33.8 °F /  1.0 °C 29.8in /  1009.0hPa Calm   2.7mph /  4.3km/h 98% 0in /  0.0mm
08:36 33.6 °F /  0.9 °C 33.8 °F /  1.0 °C 29.8in /  1009.0hPa Calm   2.7mph /  4.3km/h 98% 0in /  0.0mm
08:37 33.6 °F /  0.9 °C 33.8 °F /  1.0 °C 29.8in /  1009.0hPa Calm   2.7mph /  4.3km/h 98% 0in /  0.0mm
08:39 33.8 °F /  1.0 °C 33.8 °F /  1.0 °C 29.8in /  1009.0hPa Calm   2.7mph /  4.3km/h 98% 0in /  0.0mm
08:42 33.8 °F /  1.0 °C 33.8 °F /  1.0 °C 29.8in /  1009.0hPa Calm   2.2mph /  3.5km/h 98% 0in /  0.0mm
08:43 33.8 °F /  1.0 °C 33.8 °F /  1.0 °C 29.8in /  1009.0hPa Calm     98% 0in /  0.0mm
08:44 33.8 °F /  1.0 °C 33.8 °F /  1.0 °C 29.8in /  1009.0hPa Calm     98% 0in /  0.0mm
08:45 33.8 °F /  1.0 °C 33.8 °F /  1.0 °C 29.8in /  1009.0hPa Calm     98% 0in /  0.0mm
08:50 33.8 °F /  1.0 °C 33.8 °F /  1.0 °C 29.8in /  1009.0hPa Calm     98% 0in /  0.0mm
08:51 33.8 °F /  1.0 °C 33.8 °F /  1.0 °C 29.8in /  1009.0hPa Calm     98% 0in /  0.0mm
08:54 33.8 °F /  1.0 °C 33.8 °F /  1.0 °C 29.8in /  1009.0hPa ENE 2.7mph /  4.3km/h 2.7mph /  4.3km/h 98% 0in /  0.0mm
08:55 33.8 °F /  1.0 °C 33.8 °F /  1.0 °C 29.8in /  1009.0hPa Calm   2.7mph /  4.3km/h 98% 0in /  0.0mm
08:56 33.8 °F /  1.0 °C 33.8 °F /  1.0 °C 29.8in /  1009.0hPa Calm   2.7mph /  4.3km/h 98% 0in /  0.0mm
08:57 33.8 °F /  1.0 °C 33.8 °F /  1.0 °C 29.8in /  1009.0hPa Calm   2.7mph /  4.3km/h 98% 0in /  0.0mm
08:59 33.8 °F /  1.0 °C 33.8 °F /  1.0 °C 29.8in /  1009.0hPa Calm   2.7mph /  4.3km/h 98% 0in /  0.0mm
09:00 33.8 °F /  1.0 °C 33.8 °F /  1.0 °C 29.8in /  1009.0hPa Calm   2.7mph /  4.3km/h 98% 0in /  0.0mm
09:01 33.8 °F /  1.0 °C 33.8 °F /  1.0 °C 29.8in /  1009.0hPa Calm   2.7mph /  4.3km/h 98% 0in /  0.0mm
09:02 33.8 °F /  1.0 °C 33.8 °F /  1.0 °C 29.8in /  1009.0hPa Calm   2.7mph /  4.3km/h 98% 0in /  0.0mm
09:03 33.8 °F /  1.0 °C 33.8 °F /  1.0 °C 29.8in /  1009.0hPa Calm   2.7mph /  4.3km/h 98% 0in /  0.0mm
09:04 33.8 °F /  1.0 °C 33.8 °F /  1.0 °C 29.8in /  1009.0hPa Calm   2.7mph /  4.3km/h 98% 0in /  0.0mm
09:06 33.8 °F /  1.0 °C 33.8 °F /  1.0 °C 29.8in /  1009.0hPa Calm   2.5mph /  4.0km/h 98% 0in /  0.0mm
09:08 33.8 °F /  1.0 °C 33.8 °F /  1.0 °C 29.8in /  1009.0hPa East 2mph /  3.2km/h 2.2mph /  3.5km/h 98% 0in /  0.0mm
09:10 33.8 °F /  1.0 °C 33.8 °F /  1.0 °C 29.8in /  1009.0hPa Calm   2.2mph /  3.5km/h 98% 0in /  0.0mm
09:12 34 °F /  1.1 °C 33.8 °F /  1.0 °C 29.8in /  1009.0hPa Calm   2mph /  3.2km/h 98% 0in /  0.0mm
09:14 34 °F /  1.1 °C 33.8 °F /  1.0 °C 29.8in /  1009.0hPa East 1.3mph /  2.1km/h 2mph /  3.2km/h 98% 0in /  0.0mm
09:15 34 °F /  1.1 °C 33.8 °F /  1.0 °C 29.8in /  1009.0hPa Calm   2mph /  3.2km/h 98% 0in /  0.0mm
09:16 34 °F /  1.1 °C 33.8 °F /  1.0 °C 29.8in /  1009.0hPa Calm   2mph /  3.2km/h 98% 0in /  0.0mm
09:17 34 °F /  1.1 °C 33.8 °F /  1.0 °C 29.8in /  1009.0hPa East 1.3mph /  2.1km/h 2.2mph /  3.5km/h 98% 0in /  0.0mm
09:18 34.2 °F /  1.2 °C 33.8 °F /  1.0 °C 29.8in /  1009.0hPa Calm   2.2mph /  3.5km/h 98% 0in /  0.0mm
09:24 34.3 °F /  1.3 °C 33.8 °F /  1.0 °C 29.8in /  1009.0hPa Calm   2.2mph /  3.5km/h 98% 0in /  0.0mm
09:26 34.3 °F /  1.3 °C 33.8 °F /  1.0 °C 29.8in /  1009.0hPa Calm   2.2mph /  3.5km/h 98% 0in /  0.0mm
09:27 34.3 °F /  1.3 °C 33.8 °F /  1.0 °C 29.8in /  1008.0hPa Calm   2.2mph /  3.5km/h 98% 0in /  0.0mm
09:30 34.3 °F /  1.3 °C 33.8 °F /  1.0 °C 29.8in /  1008.0hPa Calm   2mph /  3.2km/h 98% 0in /  0.0mm
09:31 34.3 °F /  1.3 °C 33.8 °F /  1.0 °C 29.8in /  1008.0hPa Calm   2mph /  3.2km/h 98% 0in /  0.0mm
09:32 34.3 °F /  1.3 °C 33.8 °F /  1.0 °C 29.8in /  1008.0hPa Calm   2mph /  3.2km/h 98% 0in /  0.0mm
09:33 34.3 °F /  1.3 °C 33.8 °F /  1.0 °C 29.8in /  1008.0hPa Calm   2mph /  3.2km/h 98% 0in /  0.0mm
09:34 34.3 °F /  1.3 °C 33.8 °F /  1.0 °C 29.8in /  1008.0hPa Calm   2mph /  3.2km/h 98% 0in /  0.0mm
09:35 34.3 °F /  1.3 °C 33.8 °F /  1.0 °C 29.8in /  1008.0hPa Calm   2mph /  3.2km/h 98% 0in /  0.0mm
09:36 34.3 °F /  1.3 °C 33.8 °F /  1.0 °C 29.8in /  1008.0hPa Calm   2mph /  3.2km/h 98% 0in /  0.0mm
09:37 34.3 °F /  1.3 °C 33.8 °F /  1.0 °C 29.8in /  1008.0hPa Calm   2mph /  3.2km/h 98% 0in /  0.0mm
09:38 34.3 °F /  1.3 °C 33.8 °F /  1.0 °C 29.8in /  1008.0hPa Calm   2mph /  3.2km/h 98% 0in /  0.0mm
09:39 34.5 °F /  1.4 °C 33.8 °F /  1.0 °C 29.8in /  1008.0hPa Calm     98% 0in /  0.0mm
09:40 34.5 °F /  1.4 °C 33.8 °F /  1.0 °C 29.8in /  1008.0hPa Calm     98% 0in /  0.0mm
09:41 34.5 °F /  1.4 °C 33.8 °F /  1.0 °C 29.8in /  1009.0hPa Calm     98% 0in /  0.0mm
09:43 34.5 °F /  1.4 °C 33.8 °F /  1.0 °C 29.8in /  1009.0hPa Calm   1.3mph /  2.1km/h 98% 0in /  0.0mm
09:44 34.5 °F /  1.4 °C 33.8 °F /  1.0 °C 29.8in /  1009.0hPa Calm   1.3mph /  2.1km/h 98% 0in /  0.0mm
09:45 34.5 °F /  1.4 °C 33.8 °F /  1.0 °C 29.8in /  1009.0hPa Calm   1.3mph /  2.1km/h 98% 0in /  0.0mm
09:46 34.5 °F /  1.4 °C 33.8 °F /  1.0 °C 29.8in /  1009.0hPa Calm   1.3mph /  2.1km/h 98% 0in /  0.0mm
09:47 34.5 °F /  1.4 °C 33.8 °F /  1.0 °C 29.8in /  1009.0hPa Calm   2.5mph /  4.0km/h 98% 0in /  0.0mm
09:48 34.7 °F /  1.5 °C 35.6 °F /  2.0 °C 29.8in /  1009.0hPa Calm   2.5mph /  4.0km/h 98% 0in /  0.0mm
09:49 34.7 °F /  1.5 °C 35.6 °F /  2.0 °C 29.8in /  1009.0hPa Calm   2.5mph /  4.0km/h 98% 0in /  0.0mm
09:51 34.7 °F /  1.5 °C 35.6 °F /  2.0 °C 29.8in /  1009.0hPa Calm   2.5mph /  4.0km/h 98% 0in /  0.0mm
09:53 34.7 °F /  1.5 °C 35.6 °F /  2.0 °C 29.8in /  1009.0hPa Calm   2.5mph /  4.0km/h 98% 0in /  0.0mm
09:54 34.7 °F /  1.5 °C 35.6 °F /  2.0 °C 29.8in /  1009.0hPa Calm   2.5mph /  4.0km/h 98% 0in /  0.0mm
09:56 34.9 °F /  1.6 °C 35.6 °F /  2.0 °C 29.8in /  1008.0hPa Calm   2.5mph /  4.0km/h 98% 0in /  0.0mm
09:57 34.9 °F /  1.6 °C 35.6 °F /  2.0 °C 29.8in /  1008.0hPa Calm     98% 0in /  0.0mm
09:58 34.9 °F /  1.6 °C 35.6 °F /  2.0 °C 29.8in /  1008.0hPa Calm     98% 0in /  0.0mm
09:59 34.9 °F /  1.6 °C 35.6 °F /  2.0 °C 29.8in /  1008.0hPa Calm     98% 0in /  0.0mm
10:00 34.9 °F /  1.6 °C 35.6 °F /  2.0 °C 29.8in /  1008.0hPa Calm     98% 0in /  0.0mm
10:02 34.9 °F /  1.6 °C 35.6 °F /  2.0 °C 29.8in /  1008.0hPa Calm     98% 0in /  0.0mm
10:03 34.9 °F /  1.6 °C 35.6 °F /  2.0 °C 29.8in /  1008.0hPa Calm     98% 0in /  0.0mm
10:04 35.1 °F /  1.7 °C 35.6 °F /  2.0 °C 29.8in /  1008.0hPa Calm     98% 0in /  0.0mm
10:05 35.1 °F /  1.7 °C 35.6 °F /  2.0 °C 29.8in /  1008.0hPa Calm     98% 0in /  0.0mm
10:07 35.1 °F /  1.7 °C 35.6 °F /  2.0 °C 29.8in /  1008.0hPa Calm     98% 0in /  0.0mm
10:09 35.2 °F /  1.8 °C 35.6 °F /  2.0 °C 29.8in /  1008.0hPa Calm     98% 0in /  0.0mm
10:10 35.2 °F /  1.8 °C 35.6 °F /  2.0 °C 29.8in /  1008.0hPa Calm     98% 0in /  0.0mm
10:11 35.4 °F /  1.9 °C 35.6 °F /  2.0 °C 29.8in /  1008.0hPa Calm     98% 0in /  0.0mm
10:12 35.4 °F /  1.9 °C 35.6 °F /  2.0 °C 29.8in /  1008.0hPa Calm     98% 0in /  0.0mm
10:15 35.4 °F /  1.9 °C 35.6 °F /  2.0 °C 29.8in /  1008.0hPa Calm     98% 0in /  0.0mm
10:17 35.6 °F /  2.0 °C 35.6 °F /  2.0 °C 29.8in /  1008.0hPa Calm     98% 0in /  0.0mm
10:20 35.6 °F /  2.0 °C 35.6 °F /  2.0 °C 29.8in /  1008.0hPa Calm     98% 0in /  0.0mm
10:21 35.6 °F /  2.0 °C 35.6 °F /  2.0 °C 29.8in /  1008.0hPa Calm     98% 0in /  0.0mm
10:23 35.8 °F /  2.1 °C 35.6 °F /  2.0 °C 29.8in /  1008.0hPa Calm     98% 0in /  0.0mm
10:25 35.8 °F /  2.1 °C 35.6 °F /  2.0 °C 29.8in /  1008.0hPa Calm     98% 0in /  0.0mm
10:26 36 °F /  2.2 °C 35.6 °F /  2.0 °C 29.8in /  1008.0hPa Calm     98% 0in /  0.0mm
10:27 36 °F /  2.2 °C 35.6 °F /  2.0 °C 29.8in /  1008.0hPa Calm     98% 0in /  0.0mm
10:28 36 °F /  2.2 °C 35.6 °F /  2.0 °C 29.8in /  1008.0hPa East 1.3mph /  2.1km/h 1.3mph /  2.1km/h 98% 0in /  0.0mm
10:29 36 °F /  2.2 °C 35.6 °F /  2.0 °C 29.8in /  1008.0hPa Calm   1.3mph /  2.1km/h 98% 0in /  0.0mm
10:33 36.3 °F /  2.4 °C 37.4 °F /  3.0 °C 29.8in /  1008.0hPa Calm   1.6mph /  2.6km/h 98% 0in /  0.0mm
10:34 36.3 °F /  2.4 °C 37.4 °F /  3.0 °C 29.8in /  1008.0hPa Calm   1.6mph /  2.6km/h 98% 0in /  0.0mm
10:36 36.3 °F /  2.4 °C 37.4 °F /  3.0 °C 29.8in /  1008.0hPa NE 1.6mph /  2.6km/h 1.6mph /  2.6km/h 98% 0in /  0.0mm
10:37 36.5 °F /  2.5 °C 37.4 °F /  3.0 °C 29.8in /  1008.0hPa Calm   1.6mph /  2.6km/h 98% 0in /  0.0mm
10:38 36.5 °F /  2.5 °C 37.4 °F /  3.0 °C 29.8in /  1008.0hPa Calm   1.6mph /  2.6km/h 98% 0in /  0.0mm
10:39 36.5 °F /  2.5 °C 37.4 °F /  3.0 °C 29.8in /  1008.0hPa Calm   1.6mph /  2.6km/h 98% 0in /  0.0mm
10:40 36.7 °F /  2.6 °C 37.4 °F /  3.0 °C 29.8in /  1008.0hPa Calm   1.6mph /  2.6km/h 98% 0in /  0.0mm
10:41 36.7 °F /  2.6 °C 37.4 °F /  3.0 °C 29.8in /  1008.0hPa Calm   1.6mph /  2.6km/h 98% 0in /  0.0mm
10:42 36.7 °F /  2.6 °C 37.4 °F /  3.0 °C 29.8in /  1008.0hPa Calm   1.6mph /  2.6km/h 98% 0in /  0.0mm
10:43 36.7 °F /  2.6 °C 37.4 °F /  3.0 °C 29.8in /  1008.0hPa ESE 1.6mph /  2.6km/h 2.2mph /  3.5km/h 98% 0in /  0.0mm
10:44 36.7 °F /  2.6 °C 37.4 °F /  3.0 °C 29.8in /  1008.0hPa Calm   2.2mph /  3.5km/h 98% 0in /  0.0mm
10:45 36.9 °F /  2.7 °C 37.4 °F /  3.0 °C 29.8in /  1008.0hPa ENE 1.3mph /  2.1km/h 2.2mph /  3.5km/h 98% 0in /  0.0mm
10:46 36.9 °F /  2.7 °C 37.4 °F /  3.0 °C 29.8in /  1008.0hPa Calm   2.2mph /  3.5km/h 98% 0in /  0.0mm
10:48 36.9 °F /  2.7 °C 37.4 °F /  3.0 °C 29.8in /  1008.0hPa Calm   2.7mph /  4.3km/h 98% 0in /  0.0mm
10:54 37.2 °F /  2.9 °C 37.4 °F /  3.0 °C 29.8in /  1008.0hPa Calm   2.7mph /  4.3km/h 98% 0in /  0.0mm
10:56 37.2 °F /  2.9 °C 37.4 °F /  3.0 °C 29.8in /  1008.0hPa Calm   2.5mph /  4.0km/h 98% 0in /  0.0mm
10:58 37.4 °F /  3.0 °C 37.4 °F /  3.0 °C 29.8in /  1008.0hPa East 1.6mph /  2.6km/h 2.5mph /  4.0km/h 98% 0in /  0.0mm
10:59 37.4 °F /  3.0 °C 37.4 °F /  3.0 °C 29.8in /  1008.0hPa East 0.9mph /  1.4km/h 1.6mph /  2.6km/h 98% 0in /  0.0mm
11:00 37.4 °F /  3.0 °C 37.4 °F /  3.0 °C 29.8in /  1008.0hPa Calm   1.6mph /  2.6km/h 98% 0in /  0.0mm
11:01 37.4 °F /  3.0 °C 37.4 °F /  3.0 °C 29.8in /  1008.0hPa Calm   2.2mph /  3.5km/h 98% 0in /  0.0mm
11:03 37.4 °F /  3.0 °C 37.4 °F /  3.0 °C 29.8in /  1008.0hPa Calm   2.2mph /  3.5km/h 98% 0in /  0.0mm
11:05 37.6 °F /  3.1 °C 37.4 °F /  3.0 °C 29.8in /  1008.0hPa Calm   2.2mph /  3.5km/h 98% 0in /  0.0mm
11:06 37.6 °F /  3.1 °C 37.4 °F /  3.0 °C 29.8in /  1008.0hPa Calm   2.2mph /  3.5km/h 98% 0in /  0.0mm
11:07 37.6 °F /  3.1 °C 37.4 °F /  3.0 °C 29.8in /  1008.0hPa Calm   2.2mph /  3.5km/h 98% 0in /  0.0mm
11:08 37.6 °F /  3.1 °C 37.4 °F /  3.0 °C 29.8in /  1008.0hPa ESE 1.6mph /  2.6km/h 2.2mph /  3.5km/h 98% 0in /  0.0mm
11:09 37.6 °F /  3.1 °C 37.4 °F /  3.0 °C 29.8in /  1008.0hPa Calm   2.2mph /  3.5km/h 98% 0in /  0.0mm
11:11 37.8 °F /  3.2 °C 37.4 °F /  3.0 °C 29.8in /  1008.0hPa Calm   2.2mph /  3.5km/h 98% 0in /  0.0mm
11:13 37.9 °F /  3.3 °C 37.4 °F /  3.0 °C 29.8in /  1008.0hPa Calm   2mph /  3.2km/h 98% 0in /  0.0mm
11:15 37.9 °F /  3.3 °C 37.4 °F /  3.0 °C 29.8in /  1008.0hPa Calm   2mph /  3.2km/h 98% 0in /  0.0mm
11:17 37.9 °F /  3.3 °C 37.4 °F /  3.0 °C 29.8in /  1008.0hPa Calm   2mph /  3.2km/h 98% 0in /  0.0mm
11:19 38.1 °F /  3.4 °C 37.4 °F /  3.0 °C 29.8in /  1008.0hPa Calm     98% 0in /  0.0mm
11:21 38.3 °F /  3.5 °C 39.2 °F /  4.0 °C 29.8in /  1008.0hPa Calm     98% 0in /  0.0mm
11:22 38.3 °F /  3.5 °C 39.2 °F /  4.0 °C 29.8in /  1008.0hPa Calm     98% 0in /  0.0mm
11:23 38.3 °F /  3.5 °C 39.2 °F /  4.0 °C 29.8in /  1008.0hPa Calm     98% 0in /  0.0mm
11:26 38.5 °F /  3.6 °C 39.2 °F /  4.0 °C 29.8in /  1008.0hPa Calm     98% 0in /  0.0mm
11:27 38.5 °F /  3.6 °C 39.2 °F /  4.0 °C 29.8in /  1008.0hPa Calm     98% 0in /  0.0mm
11:28 38.5 °F /  3.6 °C 39.2 °F /  4.0 °C 29.8in /  1008.0hPa Calm     98% 0in /  0.0mm
11:30 38.7 °F /  3.7 °C 39.2 °F /  4.0 °C 29.8in /  1008.0hPa Calm     98% 0in /  0.0mm
11:32 38.7 °F /  3.7 °C 39.2 °F /  4.0 °C 29.8in /  1008.0hPa Calm     98% 0in /  0.0mm
11:33 38.7 °F /  3.7 °C 39.2 °F /  4.0 °C 29.8in /  1008.0hPa Calm     98% 0in /  0.0mm
11:37 38.8 °F /  3.8 °C 39.2 °F /  4.0 °C 29.8in /  1008.0hPa Calm     98% 0in /  0.0mm
11:38 38.8 °F /  3.8 °C 39.2 °F /  4.0 °C 29.8in /  1008.0hPa Calm     98% 0in /  0.0mm
11:39 38.8 °F /  3.8 °C 39.2 °F /  4.0 °C 29.8in /  1008.0hPa Calm     98% 0in /  0.0mm
11:41 39 °F /  3.9 °C 39.2 °F /  4.0 °C 29.8in /  1008.0hPa Calm     98% 0in /  0.0mm
11:42 39 °F /  3.9 °C 39.2 °F /  4.0 °C 29.8in /  1008.0hPa Calm     98% 0in /  0.0mm
11:43 39 °F /  3.9 °C 39.2 °F /  4.0 °C 29.8in /  1008.0hPa Calm     98% 0in /  0.0mm
11:44 39 °F /  3.9 °C 39.2 °F /  4.0 °C 29.8in /  1008.0hPa Calm     98% 0in /  0.0mm
11:45 39 °F /  3.9 °C 39.2 °F /  4.0 °C 29.8in /  1008.0hPa Calm     98% 0in /  0.0mm
11:46 39.2 °F /  4.0 °C 39.2 °F /  4.0 °C 29.8in /  1008.0hPa Calm     98% 0in /  0.0mm
11:47 39.2 °F /  4.0 °C 39.2 °F /  4.0 °C 29.8in /  1008.0hPa Calm     98% 0in /  0.0mm
11:48 39.2 °F /  4.0 °C 39.2 °F /  4.0 °C 29.8in /  1008.0hPa Calm     98% 0in /  0.0mm
11:49 39.2 °F /  4.0 °C 39.2 °F /  4.0 °C 29.8in /  1008.0hPa Calm     98% 0in /  0.0mm
11:50 39.2 °F /  4.0 °C 39.2 °F /  4.0 °C 29.8in /  1008.0hPa Calm     98% 0in /  0.0mm
11:52 39.4 °F /  4.1 °C 39.2 °F /  4.0 °C 29.8in /  1008.0hPa Calm     98% 0in /  0.0mm
11:53 39.4 °F /  4.1 °C 39.2 °F /  4.0 °C 29.8in /  1008.0hPa SSE 2.5mph /  4.0km/h 4mph /  6.4km/h 98% 0in /  0.0mm
11:54 39.4 °F /  4.1 °C 39.2 °F /  4.0 °C 29.8in /  1008.0hPa Calm   4mph /  6.4km/h 98% 0in /  0.0mm
11:55 39.4 °F /  4.1 °C 39.2 °F /  4.0 °C 29.8in /  1008.0hPa Calm   4mph /  6.4km/h 98% 0in /  0.0mm
11:56 39.4 °F /  4.1 °C 39.2 °F /  4.0 °C 29.8in /  1008.0hPa Calm   4mph /  6.4km/h 98% 0in /  0.0mm
11:58 39.4 °F /  4.1 °C 39.2 °F /  4.0 °C 29.8in /  1008.0hPa South 6mph /  9.7km/h 6mph /  9.7km/h 98% 0in /  0.0mm
11:59 39.4 °F /  4.1 °C 39.2 °F /  4.0 °C 29.8in /  1008.0hPa Calm   6mph /  9.7km/h 98% 0in /  0.0mm
12:00 39.6 °F /  4.2 °C 39.2 °F /  4.0 °C 29.8in /  1008.0hPa South 5.8mph /  9.3km/h 6mph /  9.7km/h 98% 0in /  0.0mm
12:04 39.6 °F /  4.2 °C 39.2 °F /  4.0 °C 29.8in /  1008.0hPa SSE 5.8mph /  9.3km/h 6.5mph /  10.5km/h 98% 0in /  0.0mm
12:05 39.7 °F /  4.3 °C 39.2 °F /  4.0 °C 29.8in /  1008.0hPa SSW 3.6mph /  5.8km/h 6.5mph /  10.5km/h 98% 0in /  0.0mm
12:06 39.7 °F /  4.3 °C 39.2 °F /  4.0 °C 29.8in /  1008.0hPa South 1.1mph /  1.8km/h 6.5mph /  10.5km/h 98% 0in /  0.0mm
12:09 39.7 °F /  4.3 °C 39.2 °F /  4.0 °C 29.8in /  1008.0hPa SSE 1.1mph /  1.8km/h 6.5mph /  10.5km/h 98% 0in /  0.0mm
12:10 39.7 °F /  4.3 °C 39.2 °F /  4.0 °C 29.8in /  1008.0hPa SSE 3.8mph /  6.1km/h 6.5mph /  10.5km/h 98% 0in /  0.0mm
12:12 39.7 °F /  4.3 °C 39.2 °F /  4.0 °C 29.8in /  1008.0hPa SSE 5.8mph /  9.3km/h 7.8mph /  12.6km/h 98% 0in /  0.0mm
12:14 39.7 °F /  4.3 °C 39.2 °F /  4.0 °C 29.8in /  1008.0hPa Calm   7.8mph /  12.6km/h 98% 0in /  0.0mm
12:15 39.7 °F /  4.3 °C 39.2 °F /  4.0 °C 29.8in /  1008.0hPa SSE 8.1mph /  13.0km/h 8.1mph /  13.0km/h 98% 0in /  0.0mm
12:16 39.9 °F /  4.4 °C 39.2 °F /  4.0 °C 29.8in /  1008.0hPa South 5.6mph /  9.0km/h 8.1mph /  13.0km/h 98% 0in /  0.0mm
12:17 39.9 °F /  4.4 °C 39.2 °F /  4.0 °C 29.8in /  1008.0hPa Calm   8.1mph /  13.0km/h 98% 0in /  0.0mm
12:18 39.9 °F /  4.4 °C 39.2 °F /  4.0 °C 29.8in /  1008.0hPa Calm   8.1mph /  13.0km/h 98% 0in /  0.0mm
12:19 39.9 °F /  4.4 °C 39.2 °F /  4.0 °C 29.8in /  1008.0hPa Calm   8.1mph /  13.0km/h 98% 0in /  0.0mm
12:22 39.9 °F /  4.4 °C 39.2 °F /  4.0 °C 29.8in /  1008.0hPa Calm   8.1mph /  13.0km/h 98% 0in /  0.0mm
12:23 39.9 °F /  4.4 °C 39.2 °F /  4.0 °C 29.8in /  1008.0hPa South 2.9mph /  4.7km/h 8.1mph /  13.0km/h 98% 0in /  0.0mm
12:26 39.9 °F /  4.4 °C 39.2 °F /  4.0 °C 29.7in /  1007.0hPa SSE 3.8mph /  6.1km/h 8.1mph /  13.0km/h 98% 0in /  0.0mm
12:28 39.9 °F /  4.4 °C 39.2 °F /  4.0 °C 29.7in /  1007.0hPa SSE 2mph /  3.2km/h 8.1mph /  13.0km/h 98% 0in /  0.0mm
12:29 39.9 °F /  4.4 °C 39.2 °F /  4.0 °C 29.7in /  1007.0hPa SSE 4mph /  6.4km/h 8.1mph /  13.0km/h 98% 0in /  0.0mm
12:30 39.9 °F /  4.4 °C 39.2 °F /  4.0 °C 29.7in /  1007.0hPa Calm   8.1mph /  13.0km/h 98% 0in /  0.0mm
12:31 39.9 °F /  4.4 °C 39.2 °F /  4.0 °C 29.7in /  1007.0hPa South 5.4mph /  8.7km/h 8.1mph /  13.0km/h 98% 0in /  0.0mm
12:32 40.1 °F /  4.5 °C 41 °F /  5.0 °C 29.7in /  1007.0hPa SSW 2.9mph /  4.7km/h 8.1mph /  13.0km/h 98% 0in /  0.0mm
12:33 40.1 °F /  4.5 °C 41 °F /  5.0 °C 29.7in /  1007.0hPa SSE 2.7mph /  4.3km/h 8.1mph /  13.0km/h 98% 0in /  0.0mm
12:34 40.1 °F /  4.5 °C 41 °F /  5.0 °C 29.7in /  1007.0hPa SSE 5.6mph /  9.0km/h 8.1mph /  13.0km/h 98% 0in /  0.0mm
12:35 40.1 °F /  4.5 °C 41 °F /  5.0 °C 29.7in /  1007.0hPa SSE 6.7mph /  10.8km/h 6.9mph /  11.1km/h 98% 0in /  0.0mm
12:36 40.1 °F /  4.5 °C 41 °F /  5.0 °C 29.7in /  1007.0hPa South 1.6mph /  2.6km/h 7.4mph /  11.9km/h 98% 0in /  0.0mm
12:37 40.1 °F /  4.5 °C 41 °F /  5.0 °C 29.7in /  1007.0hPa South 4.9mph /  7.9km/h 7.4mph /  11.9km/h 98% 0in /  0.0mm
12:38 40.3 °F /  4.6 °C 41 °F /  5.0 °C 29.7in /  1007.0hPa Calm   7.4mph /  11.9km/h 98% 0in /  0.0mm
12:41 40.3 °F /  4.6 °C 41 °F /  5.0 °C 29.7in /  1007.0hPa Calm   7.4mph /  11.9km/h 98% 0in /  0.0mm
12:44 40.3 °F /  4.6 °C 41 °F /  5.0 °C 29.7in /  1007.0hPa Calm   7.4mph /  11.9km/h 98% 0in /  0.0mm
12:46 40.5 °F /  4.7 °C 41 °F /  5.0 °C 29.7in /  1007.0hPa South 4.7mph /  7.6km/h 5.8mph /  9.3km/h 98% 0in /  0.0mm
12:47 40.5 °F /  4.7 °C 41 °F /  5.0 °C 29.7in /  1007.0hPa SSW 4mph /  6.4km/h 5.8mph /  9.3km/h 98% 0in /  0.0mm
12:49 40.5 °F /  4.7 °C 41 °F /  5.0 °C 29.7in /  1007.0hPa South 3.4mph /  5.5km/h 5.8mph /  9.3km/h 98% 0in /  0.0mm
12:50 40.5 °F /  4.7 °C 41 °F /  5.0 °C 29.7in /  1007.0hPa South 3.1mph /  5.0km/h 5.8mph /  9.3km/h 98% 0in /  0.0mm
12:51 40.5 °F /  4.7 °C 41 °F /  5.0 °C 29.7in /  1007.0hPa South 4.3mph /  6.9km/h 5.8mph /  9.3km/h 98% 0in /  0.0mm
12:52 40.5 °F /  4.7 °C 41 °F /  5.0 °C 29.7in /  1007.0hPa South 2.7mph /  4.3km/h 6.3mph /  10.1km/h 98% 0in /  0.0mm
12:54 40.6 °F /  4.8 °C 41 °F /  5.0 °C 29.7in /  1007.0hPa Calm   6.3mph /  10.1km/h 98% 0in /  0.0mm
12:55 40.6 °F /  4.8 °C 41 °F /  5.0 °C 29.7in /  1007.0hPa SSE 2.5mph /  4.0km/h 6.3mph /  10.1km/h 98% 0in /  0.0mm
12:57 40.6 °F /  4.8 °C 41 °F /  5.0 °C 29.7in /  1007.0hPa SSE 2.9mph /  4.7km/h 6.3mph /  10.1km/h 98% 0in /  0.0mm
12:58 40.6 °F /  4.8 °C 41 °F /  5.0 °C 29.7in /  1007.0hPa South 4.3mph /  6.9km/h 6.3mph /  10.1km/h 98% 0in /  0.0mm
12:59 40.6 °F /  4.8 °C 41 °F /  5.0 °C 29.7in /  1007.0hPa South 5.8mph /  9.3km/h 6.3mph /  10.1km/h 98% 0in /  0.0mm
13:00 40.6 °F /  4.8 °C 41 °F /  5.0 °C 29.7in /  1007.0hPa Calm   6.3mph /  10.1km/h 98% 0in /  0.0mm
13:01 40.6 °F /  4.8 °C 41 °F /  5.0 °C 29.7in /  1007.0hPa Calm   6.3mph /  10.1km/h 98% 0in /  0.0mm
13:03 40.6 °F /  4.8 °C 41 °F /  5.0 °C 29.7in /  1007.0hPa South 3.8mph /  6.1km/h 6.3mph /  10.1km/h 98% 0in /  0.0mm
13:04 40.6 °F /  4.8 °C 41 °F /  5.0 °C 29.7in /  1007.0hPa SSE 5.6mph /  9.0km/h 7.2mph /  11.6km/h 98% 0in /  0.0mm
13:05 40.6 °F /  4.8 °C 41 °F /  5.0 °C 29.7in /  1007.0hPa Calm   7.2mph /  11.6km/h 98% 0in /  0.0mm
13:06 40.6 °F /  4.8 °C 41 °F /  5.0 °C 29.7in /  1007.0hPa South 7.6mph /  12.2km/h 7.6mph /  12.2km/h 98% 0in /  0.0mm
13:07 40.6 °F /  4.8 °C 41 °F /  5.0 °C 29.7in /  1007.0hPa South 3.6mph /  5.8km/h 7.6mph /  12.2km/h 98% 0in /  0.0mm
13:09 40.6 °F /  4.8 °C 41 °F /  5.0 °C 29.7in /  1007.0hPa South 3.8mph /  6.1km/h 7.6mph /  12.2km/h 98% 0in /  0.0mm
13:10 40.6 °F /  4.8 °C 41 °F /  5.0 °C 29.7in /  1007.0hPa South 7.6mph /  12.2km/h 7.6mph /  12.2km/h 98% 0in /  0.0mm
13:11 40.6 °F /  4.8 °C 41 °F /  5.0 °C 29.7in /  1007.0hPa SSW 6.5mph /  10.5km/h 7.6mph /  12.2km/h 98% 0in /  0.0mm
13:12 40.6 °F /  4.8 °C 41 °F /  5.0 °C 29.7in /  1007.0hPa SSW 5.6mph /  9.0km/h 7.6mph /  12.2km/h 98% 0in /  0.0mm
13:14 40.6 °F /  4.8 °C 41 °F /  5.0 °C 29.7in /  1007.0hPa South 3.8mph /  6.1km/h 7.6mph /  12.2km/h 98% 0in /  0.0mm
13:15 40.6 °F /  4.8 °C 41 °F /  5.0 °C 29.7in /  1007.0hPa SSW 3.6mph /  5.8km/h 7.6mph /  12.2km/h 98% 0in /  0.0mm
13:16 40.6 °F /  4.8 °C 41 °F /  5.0 °C 29.7in /  1007.0hPa SSW 4mph /  6.4km/h 7.6mph /  12.2km/h 98% 0in /  0.0mm
13:18 40.6 °F /  4.8 °C 41 °F /  5.0 °C 29.7in /  1007.0hPa SSW 4mph /  6.4km/h 7.6mph /  12.2km/h 98% 0in /  0.0mm
13:19 40.6 °F /  4.8 °C 41 °F /  5.0 °C 29.7in /  1007.0hPa SSW 5.8mph /  9.3km/h 7.6mph /  12.2km/h 98% 0in /  0.0mm
13:22 40.8 °F /  4.9 °C 41 °F /  5.0 °C 29.7in /  1007.0hPa SSW 3.8mph /  6.1km/h 6.5mph /  10.5km/h 98% 0in /  0.0mm
13:23 40.8 °F /  4.9 °C 41 °F /  5.0 °C 29.7in /  1007.0hPa SSW 4.9mph /  7.9km/h 6.9mph /  11.1km/h 98% 0in /  0.0mm
13:24 40.8 °F /  4.9 °C 41 °F /  5.0 °C 29.7in /  1007.0hPa SSW 5.6mph /  9.0km/h 6.9mph /  11.1km/h 98% 0in /  0.0mm
13:25 40.8 °F /  4.9 °C 41 °F /  5.0 °C 29.7in /  1007.0hPa SSW 2.9mph /  4.7km/h 6.9mph /  11.1km/h 98% 0in /  0.0mm
13:26 40.8 °F /  4.9 °C 41 °F /  5.0 °C 29.7in /  1007.0hPa South 4.3mph /  6.9km/h 7.8mph /  12.6km/h 98% 0in /  0.0mm
13:28 40.8 °F /  4.9 °C 41 °F /  5.0 °C 29.7in /  1007.0hPa SSE 3.6mph /  5.8km/h 7.8mph /  12.6km/h 98% 0in /  0.0mm
13:29 40.8 °F /  4.9 °C 41 °F /  5.0 °C 29.7in /  1007.0hPa South 5.4mph /  8.7km/h 7.8mph /  12.6km/h 98% 0in /  0.0mm
13:30 40.8 °F /  4.9 °C 41 °F /  5.0 °C 29.7in /  1007.0hPa South 4.9mph /  7.9km/h 7.8mph /  12.6km/h 98% 0in /  0.0mm
13:31 40.8 °F /  4.9 °C 41 °F /  5.0 °C 29.7in /  1007.0hPa South 6mph /  9.7km/h 7.8mph /  12.6km/h 98% 0in /  0.0mm
13:32 40.8 °F /  4.9 °C 41 °F /  5.0 °C 29.7in /  1007.0hPa SSW 6.5mph /  10.5km/h 7.8mph /  12.6km/h 98% 0in /  0.0mm
13:33 41 °F /  5.0 °C 41 °F /  5.0 °C 29.7in /  1007.0hPa South 6mph /  9.7km/h 7.8mph /  12.6km/h 98% 0in /  0.0mm
13:38 41 °F /  5.0 °C 41 °F /  5.0 °C 29.7in /  1007.0hPa SSW 4.3mph /  6.9km/h 7.4mph /  11.9km/h 98% 0in /  0.0mm
13:39 41 °F /  5.0 °C 41 °F /  5.0 °C 29.7in /  1007.0hPa SSE 2.7mph /  4.3km/h 6.7mph /  10.8km/h 98% 0in /  0.0mm
13:40 41 °F /  5.0 °C 41 °F /  5.0 °C 29.7in /  1007.0hPa South 2.7mph /  4.3km/h 6.7mph /  10.8km/h 98% 0in /  0.0mm
13:41 41 °F /  5.0 °C 41 °F /  5.0 °C 29.7in /  1007.0hPa South 4mph /  6.4km/h 6.7mph /  10.8km/h 98% 0in /  0.0mm
13:43 41 °F /  5.0 °C 41 °F /  5.0 °C 29.7in /  1007.0hPa South 3.8mph /  6.1km/h 6.3mph /  10.1km/h 98% 0in /  0.0mm
13:46 41.2 °F /  5.1 °C 41 °F /  5.0 °C 29.7in /  1007.0hPa South 1.6mph /  2.6km/h 6.3mph /  10.1km/h 98% 0in /  0.0mm
13:47 41.2 °F /  5.1 °C 41 °F /  5.0 °C 29.7in /  1007.0hPa South 2.9mph /  4.7km/h 5.6mph /  9.0km/h 98% 0in /  0.0mm
13:48 41.2 °F /  5.1 °C 41 °F /  5.0 °C 29.7in /  1007.0hPa SSE 3.6mph /  5.8km/h 5.6mph /  9.0km/h 98% 0in /  0.0mm
13:51 41.2 °F /  5.1 °C 41 °F /  5.0 °C 29.7in /  1007.0hPa SSW 2.9mph /  4.7km/h 5.4mph /  8.7km/h 98% 0in /  0.0mm
13:53 41.4 °F /  5.2 °C 41 °F /  5.0 °C 29.7in /  1007.0hPa SSE 3.1mph /  5.0km/h 5.4mph /  8.7km/h 98% 0in /  0.0mm
13:54 41.4 °F /  5.2 °C 41 °F /  5.0 °C 29.7in /  1007.0hPa South 3.8mph /  6.1km/h 5.4mph /  8.7km/h 98% 0in /  0.0mm
13:55 41.4 °F /  5.2 °C 41 °F /  5.0 °C 29.7in /  1007.0hPa Calm   5.4mph /  8.7km/h 98% 0in /  0.0mm
13:57 41.4 °F /  5.2 °C 41 °F /  5.0 °C 29.7in /  1007.0hPa South 3.8mph /  6.1km/h 4.9mph /  7.9km/h 98% 0in /  0.0mm
13:58 41.4 °F /  5.2 °C 41 °F /  5.0 °C 29.7in /  1007.0hPa Calm   4.9mph /  7.9km/h 98% 0in /  0.0mm
14:00 41.5 °F /  5.3 °C 42.8 °F /  6.0 °C 29.7in /  1007.0hPa Calm   3.8mph /  6.1km/h 98% 0in /  0.0mm
14:01 41.5 °F /  5.3 °C 42.8 °F /  6.0 °C 29.7in /  1007.0hPa South 1.6mph /  2.6km/h 3.8mph /  6.1km/h 98% 0in /  0.0mm
14:03 41.5 °F /  5.3 °C 42.8 °F /  6.0 °C 29.7in /  1007.0hPa SSW 3.6mph /  5.8km/h 5.6mph /  9.0km/h 98% 0in /  0.0mm
14:05 41.5 °F /  5.3 °C 42.8 °F /  6.0 °C 29.7in /  1007.0hPa SSE 5.4mph /  8.7km/h 8.1mph /  13.0km/h 98% 0in /  0.0mm
14:06 41.5 °F /  5.3 °C 42.8 °F /  6.0 °C 29.7in /  1007.0hPa South 4.9mph /  7.9km/h 8.1mph /  13.0km/h 98% 0in /  0.0mm
14:08 41.5 °F /  5.3 °C 42.8 °F /  6.0 °C 29.7in /  1007.0hPa Calm   8.1mph /  13.0km/h 98% 0in /  0.0mm
14:09 41.5 °F /  5.3 °C 42.8 °F /  6.0 °C 29.7in /  1007.0hPa Calm   8.1mph /  13.0km/h 98% 0in /  0.0mm
14:10 41.5 °F /  5.3 °C 42.8 °F /  6.0 °C 29.7in /  1007.0hPa SSW 3.4mph /  5.5km/h 8.1mph /  13.0km/h 98% 0in /  0.0mm
14:11 41.5 °F /  5.3 °C 42.8 °F /  6.0 °C 29.7in /  1007.0hPa SSW 3.4mph /  5.5km/h 8.1mph /  13.0km/h 98% 0in /  0.0mm
14:12 41.5 °F /  5.3 °C 42.8 °F /  6.0 °C 29.7in /  1007.0hPa SSW 4.9mph /  7.9km/h 8.1mph /  13.0km/h 98% 0in /  0.0mm
14:14 41.5 °F /  5.3 °C 42.8 °F /  6.0 °C 29.7in /  1007.0hPa SSW 4mph /  6.4km/h 7.4mph /  11.9km/h 98% 0in /  0.0mm
14:15 41.5 °F /  5.3 °C 42.8 °F /  6.0 °C 29.7in /  1007.0hPa South 3.4mph /  5.5km/h 6.5mph /  10.5km/h 98% 0in /  0.0mm
14:16 41.5 °F /  5.3 °C 42.8 °F /  6.0 °C 29.7in /  1007.0hPa South 2mph /  3.2km/h 6.5mph /  10.5km/h 98% 0in /  0.0mm
14:17 41.7 °F /  5.4 °C 42.8 °F /  6.0 °C 29.7in /  1007.0hPa South 2mph /  3.2km/h 6.5mph /  10.5km/h 98% 0in /  0.0mm
14:18 41.7 °F /  5.4 °C 42.8 °F /  6.0 °C 29.7in /  1007.0hPa SSW 2.9mph /  4.7km/h 6.5mph /  10.5km/h 98% 0in /  0.0mm
14:20 41.7 °F /  5.4 °C 42.8 °F /  6.0 °C 29.7in /  1007.0hPa SW 2.2mph /  3.5km/h 6.5mph /  10.5km/h 98% 0in /  0.0mm
14:22 41.7 °F /  5.4 °C 42.8 °F /  6.0 °C 29.7in /  1007.0hPa SSW 4mph /  6.4km/h 6.5mph /  10.5km/h 98% 0in /  0.0mm
14:24 41.9 °F /  5.5 °C 42.8 °F /  6.0 °C 29.7in /  1007.0hPa South 4mph /  6.4km/h 5.8mph /  9.3km/h 98% 0in /  0.0mm
14:25 41.9 °F /  5.5 °C 42.8 °F /  6.0 °C 29.7in /  1006.0hPa SSW 3.8mph /  6.1km/h 6.3mph /  10.1km/h 98% 0in /  0.0mm
14:26 41.9 °F /  5.5 °C 42.8 °F /  6.0 °C 29.7in /  1006.0hPa SSW 4.7mph /  7.6km/h 6.3mph /  10.1km/h 98% 0in /  0.0mm
14:27 42.1 °F /  5.6 °C 42.8 °F /  6.0 °C 29.7in /  1006.0hPa SSW 2.7mph /  4.3km/h 6.3mph /  10.1km/h 98% 0in /  0.0mm
14:30 42.1 °F /  5.6 °C 42.8 °F /  6.0 °C 29.7in /  1006.0hPa South 6.3mph /  10.1km/h 6.3mph /  10.1km/h 98% 0in /  0.0mm
14:31 42.1 °F /  5.6 °C 42.8 °F /  6.0 °C 29.7in /  1006.0hPa SSW 3.1mph /  5.0km/h 6.3mph /  10.1km/h 98% 0in /  0.0mm
14:32 42.1 °F /  5.6 °C 42.8 °F /  6.0 °C 29.7in /  1006.0hPa SSW 4.3mph /  6.9km/h 6.3mph /  10.1km/h 98% 0in /  0.0mm
14:33 42.1 °F /  5.6 °C 42.8 °F /  6.0 °C 29.7in /  1006.0hPa South 5.8mph /  9.3km/h 6.3mph /  10.1km/h 98% 0in /  0.0mm
14:34 42.1 °F /  5.6 °C 42.8 °F /  6.0 °C 29.7in /  1006.0hPa SSW 3.8mph /  6.1km/h 6.3mph /  10.1km/h 98% 0in /  0.0mm
14:35 42.1 °F /  5.6 °C 42.8 °F /  6.0 °C 29.7in /  1006.0hPa South 5.8mph /  9.3km/h 6.3mph /  10.1km/h 98% 0in /  0.0mm
14:36 42.1 °F /  5.6 °C 42.8 °F /  6.0 °C 29.7in /  1006.0hPa South 5.8mph /  9.3km/h 6.3mph /  10.1km/h 98% 0in /  0.0mm
14:37 42.1 °F /  5.6 °C 42.8 °F /  6.0 °C 29.7in /  1006.0hPa South 6mph /  9.7km/h 7.8mph /  12.6km/h 98% 0in /  0.0mm
14:40 42.1 °F /  5.6 °C 42.8 °F /  6.0 °C 29.7in /  1006.0hPa South 5.4mph /  8.7km/h 8.9mph /  14.3km/h 98% 0in /  0.0mm
14:42 42.1 °F /  5.6 °C 42.8 °F /  6.0 °C 29.7in /  1006.0hPa South 6.5mph /  10.5km/h 10.3mph /  16.6km/h 98% 0in /  0.0mm
14:44 42.1 °F /  5.6 °C 42.8 °F /  6.0 °C 29.7in /  1006.0hPa SSE 3.8mph /  6.1km/h 10.3mph /  16.6km/h 98% 0in /  0.0mm
14:45 42.1 °F /  5.6 °C 42.8 °F /  6.0 °C 29.7in /  1006.0hPa South 4mph /  6.4km/h 10.3mph /  16.6km/h 98% 0in /  0.0mm
14:46 42.1 °F /  5.6 °C 42.8 °F /  6.0 °C 29.7in /  1006.0hPa South 3.4mph /  5.5km/h 10.3mph /  16.6km/h 98% 0in /  0.0mm
14:48 42.1 °F /  5.6 °C 42.8 °F /  6.0 °C 29.7in /  1006.0hPa SSE 4.3mph /  6.9km/h 10.3mph /  16.6km/h 98% 0in /  0.0mm
14:50 42.1 °F /  5.6 °C 42.8 °F /  6.0 °C 29.7in /  1006.0hPa SSE 3.6mph /  5.8km/h 10.3mph /  16.6km/h 98% 0in /  0.0mm
14:52 42.1 °F /  5.6 °C 42.8 °F /  6.0 °C 29.7in /  1006.0hPa SSE 3.1mph /  5.0km/h 7.4mph /  11.9km/h 98% 0in /  0.0mm
14:54 42.1 °F /  5.6 °C 42.8 °F /  6.0 °C 29.7in /  1006.0hPa SSE 1.1mph /  1.8km/h 7.4mph /  11.9km/h 98% 0in /  0.0mm
14:56 42.1 °F /  5.6 °C 42.8 °F /  6.0 °C 29.7in /  1006.0hPa South 1.1mph /  1.8km/h 6.5mph /  10.5km/h 98% 0in /  0.0mm
14:57 42.1 °F /  5.6 °C 42.8 °F /  6.0 °C 29.7in /  1006.0hPa South 3.6mph /  5.8km/h 6.5mph /  10.5km/h 98% 0in /  0.0mm
14:59 42.1 °F /  5.6 °C 42.8 °F /  6.0 °C 29.7in /  1006.0hPa Calm   6.5mph /  10.5km/h 98% 0in /  0.0mm
15:01 42.1 °F /  5.6 °C 42.8 °F /  6.0 °C 29.7in /  1006.0hPa South 6mph /  9.7km/h 6.5mph /  10.5km/h 98% 0in /  0.0mm
15:03 42.1 °F /  5.6 °C 42.8 °F /  6.0 °C 29.7in /  1006.0hPa Calm   6.5mph /  10.5km/h 98% 0in /  0.0mm
15:04 42.1 °F /  5.6 °C 42.8 °F /  6.0 °C 29.7in /  1006.0hPa South 4mph /  6.4km/h 6.5mph /  10.5km/h 98% 0in /  0.0mm
15:05 42.3 °F /  5.7 °C 42.8 °F /  6.0 °C 29.7in /  1006.0hPa South 8.1mph /  13.0km/h 8.1mph /  13.0km/h 98% 0in /  0.0mm
15:07 42.3 °F /  5.7 °C 42.8 °F /  6.0 °C 29.7in /  1006.0hPa South 4mph /  6.4km/h 9.8mph /  15.8km/h 98% 0in /  0.0mm
15:09 42.3 °F /  5.7 °C 42.8 °F /  6.0 °C 29.7in /  1006.0hPa SSW 5.8mph /  9.3km/h 9.8mph /  15.8km/h 98% 0in /  0.0mm
15:10 42.3 °F /  5.7 °C 42.8 °F /  6.0 °C 29.7in /  1006.0hPa SSE 2mph /  3.2km/h 9.8mph /  15.8km/h 98% 0in /  0.0mm
15:11 42.3 °F /  5.7 °C 42.8 °F /  6.0 °C 29.7in /  1006.0hPa SSW 5.8mph /  9.3km/h 9.8mph /  15.8km/h 98% 0in /  0.0mm
15:12 42.3 °F /  5.7 °C 42.8 °F /  6.0 °C 29.7in /  1006.0hPa SSW 3.4mph /  5.5km/h 9.8mph /  15.8km/h 98% 0in /  0.0mm
15:13 42.3 °F /  5.7 °C 42.8 °F /  6.0 °C 29.7in /  1006.0hPa South 3.8mph /  6.1km/h 9.8mph /  15.8km/h 98% 0in /  0.0mm
15:14 42.3 °F /  5.7 °C 42.8 °F /  6.0 °C 29.7in /  1006.0hPa South 2.5mph /  4.0km/h 9.8mph /  15.8km/h 98% 0in /  0.0mm
15:15 42.3 °F /  5.7 °C 42.8 °F /  6.0 °C 29.7in /  1006.0hPa South 7.2mph /  11.6km/h 9.8mph /  15.8km/h 98% 0in /  0.0mm
15:16 42.3 °F /  5.7 °C 42.8 °F /  6.0 °C 29.7in /  1006.0hPa South 7.2mph /  11.6km/h 9.8mph /  15.8km/h 98% 0in /  0.0mm
15:17 42.3 °F /  5.7 °C 42.8 °F /  6.0 °C 29.7in /  1006.0hPa South 4.3mph /  6.9km/h 8.5mph /  13.7km/h 98% 0in /  0.0mm
15:18 42.3 °F /  5.7 °C 42.8 °F /  6.0 °C 29.7in /  1006.0hPa SSW 5.6mph /  9.0km/h 8.5mph /  13.7km/h 98% 0in /  0.0mm
15:19 42.3 °F /  5.7 °C 42.8 °F /  6.0 °C 29.7in /  1006.0hPa SSW 6.5mph /  10.5km/h 8.5mph /  13.7km/h 98% 0in /  0.0mm
15:20 42.3 °F /  5.7 °C 42.8 °F /  6.0 °C 29.7in /  1006.0hPa South 3.6mph /  5.8km/h 8.5mph /  13.7km/h 98% 0in /  0.0mm
15:22 42.3 °F /  5.7 °C 42.8 °F /  6.0 °C 29.7in /  1006.0hPa South 8.9mph /  14.3km/h 8.9mph /  14.3km/h 98% 0in /  0.0mm
15:23 42.3 °F /  5.7 °C 42.8 °F /  6.0 °C 29.7in /  1006.0hPa SSW 6.5mph /  10.5km/h 8.9mph /  14.3km/h 98% 0in /  0.0mm
15:24 42.3 °F /  5.7 °C 42.8 °F /  6.0 °C 29.7in /  1006.0hPa SSW 3.4mph /  5.5km/h 8.9mph /  14.3km/h 98% 0in /  0.0mm
15:25 42.3 °F /  5.7 °C 42.8 °F /  6.0 °C 29.7in /  1006.0hPa SSW 6.3mph /  10.1km/h 8.9mph /  14.3km/h 98% 0in /  0.0mm
15:26 42.3 °F /  5.7 °C 42.8 °F /  6.0 °C 29.7in /  1006.0hPa SSW 2mph /  3.2km/h 8.9mph /  14.3km/h 98% 0in /  0.0mm
15:27 42.3 °F /  5.7 °C 42.8 °F /  6.0 °C 29.7in /  1006.0hPa SSW 2.9mph /  4.7km/h 8.9mph /  14.3km/h 98% 0in /  0.0mm
15:30 42.4 °F /  5.8 °C 42.8 °F /  6.0 °C 29.7in /  1006.0hPa SSW 1.3mph /  2.1km/h 8.9mph /  14.3km/h 98% 0in /  0.0mm
15:32 42.4 °F /  5.8 °C 42.8 °F /  6.0 °C 29.7in /  1006.0hPa WSW 5.6mph /  9.0km/h 8.9mph /  14.3km/h 98% 0in /  0.0mm
15:33 42.4 °F /  5.8 °C 42.8 °F /  6.0 °C 29.7in /  1006.0hPa SSW 5.4mph /  8.7km/h 8.1mph /  13.0km/h 98% 0in /  0.0mm
15:34 42.4 °F /  5.8 °C 42.8 °F /  6.0 °C 29.7in /  1006.0hPa SW 5.6mph /  9.0km/h 8.1mph /  13.0km/h 98% 0in /  0.0mm
15:36 42.4 °F /  5.8 °C 42.8 °F /  6.0 °C 29.7in /  1006.0hPa South 8.5mph /  13.7km/h 8.7mph /  14.0km/h 98% 0in /  0.0mm
15:38 42.4 °F /  5.8 °C 42.8 °F /  6.0 °C 29.7in /  1006.0hPa SSW 4mph /  6.4km/h 10.7mph /  17.2km/h 98% 0in /  0.0mm
15:39 42.4 °F /  5.8 °C 42.8 °F /  6.0 °C 29.7in /  1006.0hPa SSW 5.4mph /  8.7km/h 10.7mph /  17.2km/h 98% 0in /  0.0mm
15:43 42.4 °F /  5.8 °C 42.8 °F /  6.0 °C 29.7in /  1007.0hPa SSW 4.5mph /  7.2km/h 10.7mph /  17.2km/h 98% 0in /  0.0mm
15:44 42.4 °F /  5.8 °C 42.8 °F /  6.0 °C 29.7in /  1007.0hPa SW 3.8mph /  6.1km/h 10.7mph /  17.2km/h 98% 0in /  0.0mm
15:46 42.4 °F /  5.8 °C 42.8 °F /  6.0 °C 29.7in /  1007.0hPa SW 7.4mph /  11.9km/h 10.7mph /  17.2km/h 98% 0in /  0.0mm
15:47 42.4 °F /  5.8 °C 42.8 °F /  6.0 °C 29.7in /  1007.0hPa SSW 6mph /  9.7km/h 10.3mph /  16.6km/h 98% 0in /  0.0mm
15:48 42.4 °F /  5.8 °C 42.8 °F /  6.0 °C 29.7in /  1007.0hPa SSW 6.3mph /  10.1km/h 10.3mph /  16.6km/h 98% 0in /  0.0mm
15:49 42.4 °F /  5.8 °C 42.8 °F /  6.0 °C 29.7in /  1007.0hPa SSW 8.5mph /  13.7km/h 10.3mph /  16.6km/h 98% 0in /  0.0mm
15:50 42.4 °F /  5.8 °C 42.8 °F /  6.0 °C 29.7in /  1007.0hPa SW 5.8mph /  9.3km/h 10.3mph /  16.6km/h 98% 0in /  0.0mm
15:51 42.4 °F /  5.8 °C 42.8 °F /  6.0 °C 29.7in /  1007.0hPa SSW 6.3mph /  10.1km/h 10.3mph /  16.6km/h 98% 0in /  0.0mm
15:55 42.4 °F /  5.8 °C 42.8 °F /  6.0 °C 29.7in /  1007.0hPa SSW 6.3mph /  10.1km/h 10.3mph /  16.6km/h 98% 0in /  0.0mm
15:57 42.4 °F /  5.8 °C 42.8 °F /  6.0 °C 29.7in /  1006.0hPa SW 5.8mph /  9.3km/h 8.7mph /  14.0km/h 98% 0in /  0.0mm
15:58 42.4 °F /  5.8 °C 42.8 °F /  6.0 °C 29.7in /  1006.0hPa SSW 6.9mph /  11.1km/h 8.7mph /  14.0km/h 98% 0in /  0.0mm
15:59 42.4 °F /  5.8 °C 42.8 °F /  6.0 °C 29.7in /  1006.0hPa WSW 6mph /  9.7km/h 8.7mph /  14.0km/h 98% 0in /  0.0mm
16:04 42.4 °F /  5.8 °C 42.8 °F /  6.0 °C 29.7in /  1006.0hPa SSW 6mph /  9.7km/h 10.7mph /  17.2km/h 98% 0in /  0.0mm
16:06 42.4 °F /  5.8 °C 42.8 °F /  6.0 °C 29.7in /  1006.0hPa SSW 7.2mph /  11.6km/h 10.7mph /  17.2km/h 98% 0in /  0.0mm
16:08 42.4 °F /  5.8 °C 42.8 °F /  6.0 °C 29.7in /  1006.0hPa SSW 5.6mph /  9.0km/h 10.7mph /  17.2km/h 98% 0in /  0.0mm
16:09 42.4 °F /  5.8 °C 42.8 °F /  6.0 °C 29.7in /  1006.0hPa SSW 10.3mph /  16.6km/h 10.7mph /  17.2km/h 98% 0in /  0.0mm
16:10 42.4 °F /  5.8 °C 42.8 °F /  6.0 °C 29.7in /  1006.0hPa SSW 6mph /  9.7km/h 10.7mph /  17.2km/h 98% 0in /  0.0mm
16:11 42.4 °F /  5.8 °C 42.8 °F /  6.0 °C 29.7in /  1007.0hPa SW 4.9mph /  7.9km/h 10.7mph /  17.2km/h 98% 0in /  0.0mm
16:12 42.4 °F /  5.8 °C 42.8 °F /  6.0 °C 29.7in /  1007.0hPa SSW 6mph /  9.7km/h 10.3mph /  16.6km/h 98% 0in /  0.0mm
16:13 42.4 °F /  5.8 °C 42.8 °F /  6.0 °C 29.7in /  1007.0hPa SW 3.8mph /  6.1km/h 10.3mph /  16.6km/h 98% 0in /  0.0mm
16:14 42.4 °F /  5.8 °C 42.8 °F /  6.0 °C 29.7in /  1007.0hPa SSW 10.1mph /  16.3km/h 10.3mph /  16.6km/h 98% 0in /  0.0mm
16:15 42.4 °F /  5.8 °C 42.8 °F /  6.0 °C 29.7in /  1007.0hPa SSW 6.5mph /  10.5km/h 10.3mph /  16.6km/h 98% 0in /  0.0mm
16:16 42.4 °F /  5.8 °C 42.8 °F /  6.0 °C 29.7in /  1007.0hPa SW 6.5mph /  10.5km/h 10.3mph /  16.6km/h 98% 0in /  0.0mm
16:17 42.4 °F /  5.8 °C 42.8 °F /  6.0 °C 29.7in /  1007.0hPa SW 3.1mph /  5.0km/h 10.3mph /  16.6km/h 98% 0in /  0.0mm
16:20 42.4 °F /  5.8 °C 42.8 °F /  6.0 °C 29.7in /  1007.0hPa SSW 5.4mph /  8.7km/h 10.1mph /  16.3km/h 98% 0in /  0.0mm
16:25 42.4 °F /  5.8 °C 42.8 °F /  6.0 °C 29.7in /  1007.0hPa SSW 5.4mph /  8.7km/h 9.6mph /  15.4km/h 98% 0in /  0.0mm
16:26 42.4 °F /  5.8 °C 42.8 °F /  6.0 °C 29.7in /  1007.0hPa WSW 4.9mph /  7.9km/h 9.6mph /  15.4km/h 98% 0in /  0.0mm
16:27 42.4 °F /  5.8 °C 42.8 °F /  6.0 °C 29.7in /  1007.0hPa SW 4.7mph /  7.6km/h 9.6mph /  15.4km/h 98% 0in /  0.0mm
16:28 42.4 °F /  5.8 °C 42.8 °F /  6.0 °C 29.7in /  1007.0hPa SW 6.5mph /  10.5km/h 9.6mph /  15.4km/h 98% 0in /  0.0mm
16:29 42.4 °F /  5.8 °C 42.8 °F /  6.0 °C 29.7in /  1007.0hPa SW 5.6mph /  9.0km/h 9.6mph /  15.4km/h 98% 0in /  0.0mm
16:30 42.4 °F /  5.8 °C 42.8 °F /  6.0 °C 29.7in /  1007.0hPa SSW 5.6mph /  9.0km/h 8.1mph /  13.0km/h 98% 0in /  0.0mm
16:32 42.3 °F /  5.7 °C 42.8 °F /  6.0 °C 29.7in /  1007.0hPa SSW 5.4mph /  8.7km/h 7.8mph /  12.6km/h 98% 0in /  0.0mm
16:33 42.3 °F /  5.7 °C 42.8 °F /  6.0 °C 29.7in /  1007.0hPa SSW 4.9mph /  7.9km/h 7.8mph /  12.6km/h 98% 0in /  0.0mm
16:34 42.3 °F /  5.7 °C 42.8 °F /  6.0 °C 29.7in /  1007.0hPa SW 7.2mph /  11.6km/h 7.8mph /  12.6km/h 98% 0in /  0.0mm
16:35 42.3 °F /  5.7 °C 42.8 °F /  6.0 °C 29.7in /  1007.0hPa SW 6.9mph /  11.1km/h 7.8mph /  12.6km/h 98% 0in /  0.0mm
16:36 42.3 °F /  5.7 °C 42.8 °F /  6.0 °C 29.7in /  1007.0hPa SW 6mph /  9.7km/h 7.8mph /  12.6km/h 98% 0in /  0.0mm
16:37 42.3 °F /  5.7 °C 42.8 °F /  6.0 °C 29.7in /  1007.0hPa SSW 6.3mph /  10.1km/h 8.7mph /  14.0km/h 98% 0in /  0.0mm
16:39 42.3 °F /  5.7 °C 42.8 °F /  6.0 °C 29.7in /  1007.0hPa SSW 4mph /  6.4km/h 8.7mph /  14.0km/h 98% 0in /  0.0mm
16:40 42.3 °F /  5.7 °C 42.8 °F /  6.0 °C 29.7in /  1007.0hPa SSW 4mph /  6.4km/h 8.7mph /  14.0km/h 98% 0in /  0.0mm
16:41 42.3 °F /  5.7 °C 42.8 °F /  6.0 °C 29.7in /  1007.0hPa SSW 5.6mph /  9.0km/h 8.7mph /  14.0km/h 98% 0in /  0.0mm
16:42 42.3 °F /  5.7 °C 42.8 °F /  6.0 °C 29.7in /  1007.0hPa SW 4mph /  6.4km/h 8.7mph /  14.0km/h 98% 0in /  0.0mm
16:43 42.3 °F /  5.7 °C 42.8 °F /  6.0 °C 29.7in /  1007.0hPa WSW 4.3mph /  6.9km/h 8.7mph /  14.0km/h 98% 0in /  0.0mm
16:44 42.3 °F /  5.7 °C 42.8 °F /  6.0 °C 29.7in /  1007.0hPa Calm   8.7mph /  14.0km/h 98% 0in /  0.0mm
16:45 42.3 °F /  5.7 °C 42.8 °F /  6.0 °C 29.7in /  1007.0hPa WSW 4.5mph /  7.2km/h 8.7mph /  14.0km/h 98% 0in /  0.0mm
16:46 42.3 °F /  5.7 °C 42.8 °F /  6.0 °C 29.7in /  1007.0hPa SSW 4.9mph /  7.9km/h 8.7mph /  14.0km/h 98% 0in /  0.0mm
16:48 42.3 °F /  5.7 °C 42.8 °F /  6.0 °C 29.7in /  1007.0hPa SW 5.4mph /  8.7km/h 6.3mph /  10.1km/h 98% 0in /  0.0mm
16:49 42.3 °F /  5.7 °C 42.8 °F /  6.0 °C 29.7in /  1007.0hPa South 4.9mph /  7.9km/h 6.3mph /  10.1km/h 98% 0in /  0.0mm
16:50 42.3 °F /  5.7 °C 42.8 °F /  6.0 °C 29.7in /  1007.0hPa SW 4mph /  6.4km/h 6.3mph /  10.1km/h 98% 0in /  0.0mm
16:51 42.3 °F /  5.7 °C 42.8 °F /  6.0 °C 29.7in /  1007.0hPa SSW 3.6mph /  5.8km/h 6mph /  9.7km/h 98% 0in /  0.0mm
16:53 42.3 °F /  5.7 °C 42.8 °F /  6.0 °C 29.7in /  1007.0hPa SSW 3.6mph /  5.8km/h 6mph /  9.7km/h 98% 0in /  0.0mm
16:58 42.3 °F /  5.7 °C 42.8 °F /  6.0 °C 29.7in /  1007.0hPa SSW 5.6mph /  9.0km/h 6mph /  9.7km/h 98% 0in /  0.0mm
17:00 42.1 °F /  5.6 °C 42.8 °F /  6.0 °C 29.7in /  1007.0hPa Calm   6.5mph /  10.5km/h 98% 0in /  0.0mm
17:02 42.1 °F /  5.6 °C 42.8 °F /  6.0 °C 29.7in /  1007.0hPa SW 3.8mph /  6.1km/h 6.5mph /  10.5km/h 98% 0in /  0.0mm
17:03 42.1 °F /  5.6 °C 42.8 °F /  6.0 °C 29.7in /  1007.0hPa WSW 5.8mph /  9.3km/h 6.5mph /  10.5km/h 98% 0in /  0.0mm
17:04 42.1 °F /  5.6 °C 42.8 °F /  6.0 °C 29.7in /  1007.0hPa SSW 5.4mph /  8.7km/h 6.5mph /  10.5km/h 98% 0in /  0.0mm
17:06 42.1 °F /  5.6 °C 42.8 °F /  6.0 °C 29.7in /  1007.0hPa SW 6mph /  9.7km/h 7.8mph /  12.6km/h 98% 0in /  0.0mm
17:09 42.1 °F /  5.6 °C 42.8 °F /  6.0 °C 29.7in /  1007.0hPa SSW 6.5mph /  10.5km/h 8.7mph /  14.0km/h 98% 0in /  0.0mm
17:10 42.1 °F /  5.6 °C 42.8 °F /  6.0 °C 29.7in /  1007.0hPa SSW 4.9mph /  7.9km/h 8.7mph /  14.0km/h 98% 0in /  0.0mm
17:13 42.1 °F /  5.6 °C 42.8 °F /  6.0 °C 29.7in /  1007.0hPa SW 4.5mph /  7.2km/h 8.7mph /  14.0km/h 98% 0in /  0.0mm
17:14 42.1 °F /  5.6 °C 42.8 °F /  6.0 °C 29.7in /  1007.0hPa SW 5.4mph /  8.7km/h 8.7mph /  14.0km/h 98% 0in /  0.0mm
17:17 42.1 °F /  5.6 °C 42.8 °F /  6.0 °C 29.7in /  1007.0hPa WSW 6.3mph /  10.1km/h 8.7mph /  14.0km/h 98% 0in /  0.0mm
17:18 42.1 °F /  5.6 °C 42.8 °F /  6.0 °C 29.7in /  1007.0hPa WSW 7.4mph /  11.9km/h 8.1mph /  13.0km/h 98% 0in /  0.0mm
17:19 42.1 °F /  5.6 °C 42.8 °F /  6.0 °C 29.7in /  1007.0hPa SSW 6mph /  9.7km/h 8.1mph /  13.0km/h 98% 0in /  0.0mm
17:21 42.1 °F /  5.6 °C 42.8 °F /  6.0 °C 29.7in /  1007.0hPa SW 6.5mph /  10.5km/h 9.6mph /  15.4km/h 98% 0in /  0.0mm
17:22 42.1 °F /  5.6 °C 42.8 °F /  6.0 °C 29.7in /  1007.0hPa SW 4.3mph /  6.9km/h 9.6mph /  15.4km/h 98% 0in /  0.0mm
17:24 42.1 °F /  5.6 °C 42.8 °F /  6.0 °C 29.7in /  1007.0hPa SSW 4.7mph /  7.6km/h 9.6mph /  15.4km/h 98% 0in /  0.0mm
17:26 42.1 °F /  5.6 °C 42.8 °F /  6.0 °C 29.7in /  1007.0hPa SSW 5.4mph /  8.7km/h 9.6mph /  15.4km/h 98% 0in /  0.0mm
17:27 42.1 °F /  5.6 °C 42.8 °F /  6.0 °C 29.7in /  1007.0hPa SSW 6.5mph /  10.5km/h 9.6mph /  15.4km/h 98% 0in /  0.0mm
17:28 42.1 °F /  5.6 °C 42.8 °F /  6.0 °C 29.7in /  1007.0hPa SSW 4mph /  6.4km/h 9.6mph /  15.4km/h 98% 0in /  0.0mm
17:30 42.1 °F /  5.6 °C 42.8 °F /  6.0 °C 29.7in /  1007.0hPa SSW 3.6mph /  5.8km/h 8.7mph /  14.0km/h 98% 0in /  0.0mm
17:31 42.1 °F /  5.6 °C 42.8 °F /  6.0 °C 29.7in /  1007.0hPa WSW 4.3mph /  6.9km/h 8.5mph /  13.7km/h 98% 0in /  0.0mm
17:32 42.1 °F /  5.6 °C 42.8 °F /  6.0 °C 29.7in /  1007.0hPa SW 6.3mph /  10.1km/h 7.4mph /  11.9km/h 98% 0in /  0.0mm
17:33 42.1 °F /  5.6 °C 42.8 °F /  6.0 °C 29.7in /  1007.0hPa SW 5.4mph /  8.7km/h 7.2mph /  11.6km/h 98% 0in /  0.0mm
17:34 42.1 °F /  5.6 °C 42.8 °F /  6.0 °C 29.7in /  1007.0hPa South 6mph /  9.7km/h 7.2mph /  11.6km/h 98% 0in /  0.0mm
17:35 41.9 °F /  5.5 °C 42.8 °F /  6.0 °C 29.7in /  1007.0hPa Calm   7.2mph /  11.6km/h 98% 0in /  0.0mm
17:38 41.9 °F /  5.5 °C 42.8 °F /  6.0 °C 29.7in /  1007.0hPa SSW 5.6mph /  9.0km/h 6.3mph /  10.1km/h 98% 0in /  0.0mm
17:39 41.9 °F /  5.5 °C 42.8 °F /  6.0 °C 29.7in /  1007.0hPa SW 5.6mph /  9.0km/h 6.3mph /  10.1km/h 98% 0in /  0.0mm
17:41 41.9 °F /  5.5 °C 42.8 °F /  6.0 °C 29.7in /  1007.0hPa SSW 4.9mph /  7.9km/h 6.3mph /  10.1km/h 98% 0in /  0.0mm
17:42 41.9 °F /  5.5 °C 42.8 °F /  6.0 °C 29.7in /  1007.0hPa SSW 5.8mph /  9.3km/h 6.3mph /  10.1km/h 98% 0in /  0.0mm
17:43 41.9 °F /  5.5 °C 42.8 °F /  6.0 °C 29.7in /  1007.0hPa Calm   6.3mph /  10.1km/h 98% 0in /  0.0mm
17:44 41.9 °F /  5.5 °C 42.8 °F /  6.0 °C 29.7in /  1007.0hPa Calm   6.3mph /  10.1km/h 98% 0in /  0.0mm
17:45 41.9 °F /  5.5 °C 42.8 °F /  6.0 °C 29.7in /  1007.0hPa Calm   6.3mph /  10.1km/h 98% 0in /  0.0mm
17:46 41.9 °F /  5.5 °C 42.8 °F /  6.0 °C 29.7in /  1007.0hPa Calm   6.3mph /  10.1km/h 98% 0in /  0.0mm
17:48 41.9 °F /  5.5 °C 42.8 °F /  6.0 °C 29.7in /  1007.0hPa Calm   6mph /  9.7km/h 98% 0in /  0.0mm
17:51 41.9 °F /  5.5 °C 42.8 °F /  6.0 °C 29.7in /  1007.0hPa Calm   5.8mph /  9.3km/h 98% 0in /  0.0mm
17:52 41.7 °F /  5.4 °C 42.8 °F /  6.0 °C 29.7in /  1007.0hPa SW 4.3mph /  6.9km/h 5.6mph /  9.0km/h 98% 0in /  0.0mm
17:53 41.7 °F /  5.4 °C 42.8 °F /  6.0 °C 29.7in /  1007.0hPa SSW 4.9mph /  7.9km/h 5.6mph /  9.0km/h 98% 0in /  0.0mm
17:54 41.7 °F /  5.4 °C 42.8 °F /  6.0 °C 29.7in /  1007.0hPa SW 3.6mph /  5.8km/h 4.9mph /  7.9km/h 98% 0in /  0.0mm
17:58 41.7 °F /  5.4 °C 42.8 °F /  6.0 °C 29.7in /  1007.0hPa SW 3.6mph /  5.8km/h 5.8mph /  9.3km/h 98% 0in /  0.0mm
17:59 41.7 °F /  5.4 °C 42.8 °F /  6.0 °C 29.7in /  1007.0hPa SW 3.4mph /  5.5km/h 5.8mph /  9.3km/h 98% 0in /  0.0mm
18:00 41.7 °F /  5.4 °C 42.8 °F /  6.0 °C 29.7in /  1007.0hPa SW 3.4mph /  5.5km/h 5.8mph /  9.3km/h 98% 0in /  0.0mm
18:01 41.7 °F /  5.4 °C 42.8 °F /  6.0 °C 29.7in /  1007.0hPa SSW 3.8mph /  6.1km/h 5.8mph /  9.3km/h 98% 0in /  0.0mm
18:03 41.7 °F /  5.4 °C 42.8 °F /  6.0 °C 29.7in /  1007.0hPa Calm   5.8mph /  9.3km/h 98% 0in /  0.0mm
18:04 41.7 °F /  5.4 °C 42.8 °F /  6.0 °C 29.7in /  1007.0hPa SW 3.4mph /  5.5km/h 5.8mph /  9.3km/h 98% 0in /  0.0mm
18:05 41.7 °F /  5.4 °C 42.8 °F /  6.0 °C 29.7in /  1007.0hPa SSW 3.1mph /  5.0km/h 5.8mph /  9.3km/h 98% 0in /  0.0mm
18:06 41.7 °F /  5.4 °C 42.8 °F /  6.0 °C 29.7in /  1007.0hPa SSW 2.5mph /  4.0km/h 5.8mph /  9.3km/h 98% 0in /  0.0mm
18:07 41.7 °F /  5.4 °C 42.8 °F /  6.0 °C 29.7in /  1007.0hPa Calm   4.9mph /  7.9km/h 98% 0in /  0.0mm
18:08 41.7 °F /  5.4 °C 42.8 °F /  6.0 °C 29.7in /  1007.0hPa Calm   4.9mph /  7.9km/h 98% 0in /  0.0mm
18:09 41.7 °F /  5.4 °C 42.8 °F /  6.0 °C 29.7in /  1007.0hPa SSW 2.7mph /  4.3km/h 4.9mph /  7.9km/h 98% 0in /  0.0mm
18:10 41.7 °F /  5.4 °C 42.8 °F /  6.0 °C 29.7in /  1007.0hPa Calm   4.9mph /  7.9km/h 98% 0in /  0.0mm
18:11 41.7 °F /  5.4 °C 42.8 °F /  6.0 °C 29.7in /  1007.0hPa Calm   4.9mph /  7.9km/h 98% 0in /  0.0mm
18:12 41.7 °F /  5.4 °C 42.8 °F /  6.0 °C 29.7in /  1007.0hPa SSW 1.3mph /  2.1km/h 4.9mph /  7.9km/h 98% 0in /  0.0mm
18:13 41.7 °F /  5.4 °C 42.8 °F /  6.0 °C 29.7in /  1007.0hPa South 5.4mph /  8.7km/h 5.4mph /  8.7km/h 98% 0in /  0.0mm
18:14 41.7 °F /  5.4 °C 42.8 °F /  6.0 °C 29.7in /  1007.0hPa South 4mph /  6.4km/h 6.5mph /  10.5km/h 98% 0in /  0.0mm
18:17 41.9 °F /  5.5 °C 42.8 °F /  6.0 °C 29.7in /  1007.0hPa SSW 2.7mph /  4.3km/h 6.5mph /  10.5km/h 98% 0in /  0.0mm
18:18 41.9 °F /  5.5 °C 42.8 °F /  6.0 °C 29.7in /  1007.0hPa SSW 2.7mph /  4.3km/h 6.5mph /  10.5km/h 98% 0in /  0.0mm
18:22 41.9 °F /  5.5 °C 42.8 °F /  6.0 °C 29.7in /  1007.0hPa SSW 3.4mph /  5.5km/h 6.5mph /  10.5km/h 98% 0in /  0.0mm
18:26 41.9 °F /  5.5 °C 42.8 °F /  6.0 °C 29.7in /  1007.0hPa SSW 3.8mph /  6.1km/h 6.5mph /  10.5km/h 98% 0in /  0.0mm
18:27 41.9 °F /  5.5 °C 42.8 °F /  6.0 °C 29.7in /  1007.0hPa SSW 3.8mph /  6.1km/h 6.5mph /  10.5km/h 98% 0in /  0.0mm
18:28 41.9 °F /  5.5 °C 42.8 °F /  6.0 °C 29.7in /  1007.0hPa Calm   6.5mph /  10.5km/h 98% 0in /  0.0mm
18:34 42.1 °F /  5.6 °C 42.8 °F /  6.0 °C 29.7in /  1007.0hPa Calm   6.3mph /  10.1km/h 98% 0in /  0.0mm
18:39 42.1 °F /  5.6 °C 42.8 °F /  6.0 °C 29.7in /  1007.0hPa Calm   6.3mph /  10.1km/h 98% 0in /  0.0mm
18:46 42.1 °F /  5.6 °C 42.8 °F /  6.0 °C 29.7in /  1007.0hPa SSW 6mph /  9.7km/h 6.3mph /  10.1km/h 98% 0in /  0.0mm
18:50 42.1 °F /  5.6 °C 42.8 °F /  6.0 °C 29.7in /  1007.0hPa SSW 2.5mph /  4.0km/h 6.3mph /  10.1km/h 98% 0in /  0.0mm
18:55 42.1 °F /  5.6 °C 42.8 °F /  6.0 °C 29.7in /  1007.0hPa SSW 3.8mph /  6.1km/h 6.5mph /  10.5km/h 98% 0in /  0.0mm
18:57 42.1 °F /  5.6 °C 42.8 °F /  6.0 °C 29.7in /  1007.0hPa SW 3.6mph /  5.8km/h 6.5mph /  10.5km/h 98% 0in /  0.0mm
18:58 42.1 °F /  5.6 °C 42.8 °F /  6.0 °C 29.7in /  1007.0hPa SSW 4.3mph /  6.9km/h 6.5mph /  10.5km/h 98% 0in /  0.0mm
18:59 42.1 °F /  5.6 °C 42.8 °F /  6.0 °C 29.7in /  1007.0hPa SSW 3.6mph /  5.8km/h 6.5mph /  10.5km/h 98% 0in /  0.0mm
19:00 42.1 °F /  5.6 °C 42.8 °F /  6.0 °C 29.7in /  1007.0hPa SSW 2.9mph /  4.7km/h 6.5mph /  10.5km/h 98% 0in /  0.0mm
19:05 42.1 °F /  5.6 °C 42.8 °F /  6.0 °C 29.7in /  1007.0hPa Calm   6.3mph /  10.1km/h 98% 0in /  0.0mm
19:06 42.1 °F /  5.6 °C 42.8 °F /  6.0 °C 29.7in /  1007.0hPa WSW 3.4mph /  5.5km/h 5.6mph /  9.0km/h 98% 0in /  0.0mm
19:13 42.1 °F /  5.6 °C 42.8 °F /  6.0 °C 29.7in /  1007.0hPa SSW 2.5mph /  4.0km/h 6.5mph /  10.5km/h 98% 0in /  0.0mm
19:20 42.3 °F /  5.7 °C 42.8 °F /  6.0 °C 29.7in /  1007.0hPa South 3.1mph /  5.0km/h 6.3mph /  10.1km/h 98% 0in /  0.0mm
19:22 42.3 °F /  5.7 °C 42.8 °F /  6.0 °C 29.7in /  1007.0hPa SW 4mph /  6.4km/h 6.3mph /  10.1km/h 98% 0in /  0.0mm
19:24 42.3 °F /  5.7 °C 42.8 °F /  6.0 °C 29.7in /  1007.0hPa Calm   6.3mph /  10.1km/h 98% 0in /  0.0mm
19:25 42.3 °F /  5.7 °C 42.8 °F /  6.0 °C 29.7in /  1007.0hPa Calm   6.3mph /  10.1km/h 98% 0in /  0.0mm
19:27 42.3 °F /  5.7 °C 42.8 °F /  6.0 °C 29.7in /  1007.0hPa Calm   6.3mph /  10.1km/h 98% 0in /  0.0mm
19:28 42.3 °F /  5.7 °C 42.8 °F /  6.0 °C 29.7in /  1007.0hPa Calm   6.3mph /  10.1km/h 98% 0in /  0.0mm
19:34 42.3 °F /  5.7 °C 42.8 °F /  6.0 °C 29.7in /  1007.0hPa Calm   4.9mph /  7.9km/h 98% 0in /  0.0mm
19:35 42.3 °F /  5.7 °C 42.8 °F /  6.0 °C 29.7in /  1007.0hPa Calm   4.9mph /  7.9km/h 98% 0in /  0.0mm
19:37 42.3 °F /  5.7 °C 42.8 °F /  6.0 °C 29.7in /  1007.0hPa Calm   5.8mph /  9.3km/h 98% 0in /  0.0mm
19:38 42.3 °F /  5.7 °C 42.8 °F /  6.0 °C 29.7in /  1007.0hPa Calm   5.8mph /  9.3km/h 98% 0in /  0.0mm
19:41 42.3 °F /  5.7 °C 42.8 °F /  6.0 °C 29.7in /  1007.0hPa SSW 3.8mph /  6.1km/h 5.8mph /  9.3km/h 98% 0in /  0.0mm
19:46 42.3 °F /  5.7 °C 42.8 °F /  6.0 °C 29.7in /  1006.0hPa Calm   4.3mph /  6.9km/h 98% 0in /  0.0mm
19:51 42.3 °F /  5.7 °C 42.8 °F /  6.0 °C 29.7in /  1006.0hPa Calm   4.3mph /  6.9km/h 98% 0in /  0.0mm
19:52 42.3 °F /  5.7 °C 42.8 °F /  6.0 °C 29.7in /  1006.0hPa Calm   4.3mph /  6.9km/h 98% 0in /  0.0mm
19:56 42.3 °F /  5.7 °C 42.8 °F /  6.0 °C 29.7in /  1007.0hPa Calm   3.8mph /  6.1km/h 98% 0in /  0.0mm
20:02 42.3 °F /  5.7 °C 42.8 °F /  6.0 °C 29.7in /  1007.0hPa Calm   4mph /  6.4km/h 98% 0in /  0.0mm
20:04 42.3 °F /  5.7 °C 42.8 °F /  6.0 °C 29.7in /  1007.0hPa Calm   4mph /  6.4km/h 98% 0in /  0.0mm
20:09 42.3 °F /  5.7 °C 42.8 °F /  6.0 °C 29.7in /  1007.0hPa South 0.9mph /  1.4km/h 3.4mph /  5.5km/h 98% 0in /  0.0mm
20:14 42.3 °F /  5.7 °C 42.8 °F /  6.0 °C 29.7in /  1007.0hPa Calm   2.5mph /  4.0km/h 98% 0in /  0.0mm
20:18 42.3 °F /  5.7 °C 42.8 °F /  6.0 °C 29.7in /  1007.0hPa South 0.9mph /  1.4km/h 2.2mph /  3.5km/h 98% 0in /  0.0mm
Données Historique de Météo Turbie

Mise a jour : 26/05/2018 05:52:13
Généré par Cumulus 1.9.4 (1099)